Observation data for Colorado City on 05/14/2018      Previous  Date  Next       Current Mesonet Observations  Soil Data  Daily Summary Page  Observations in Plain Language
KCO2 140500Z 18007KT 26/17 A2993 RMK A01 T02620168  RH  056%=      5-min Rain = 0
KCO2 140501Z 18009KT 26/17 A2993 RMK A01 T02620168  RH  056%=      5-min Rain = 0
KCO2 140502Z 18008KT 26/17 A2993 RMK A01 T02620168  RH  056%=      5-min Rain = 0
KCO2 140503Z 18007KT 26/17 A2993 RMK A01 T02620168  RH  056%=      5-min Rain = 0
KCO2 140504Z 18008KT 26/17 A2993 RMK A01 T02620168  RH  056%=      5-min Rain = 0
KCO2 140505Z 18007KT 26/17 A2993 RMK A01 T02620168  RH  056%=      5-min Rain = 0
KCO2 140506Z 17006KT 26/17 A2993 RMK A01 T02620169  RH  056%=      5-min Rain = 0
KCO2 140507Z 17007KT 26/17 A2993 RMK A01 T02620169  RH  056%=      5-min Rain = 0
KCO2 140508Z 17006KT 26/17 A2993 RMK A01 T02620169  RH  056%=      5-min Rain = 0
KCO2 140509Z 17007KT 26/17 A2993 RMK A01 T02620169  RH  056%=      5-min Rain = 0
KCO2 140510Z 17008KT 26/17 A2992 RMK A01 T02620169  RH  056%=      5-min Rain = 0
KCO2 140511Z 17007KT 26/17 A2992 RMK A01 T02620168  RH  056%=      5-min Rain = 0
KCO2 140512Z 17007KT 26/17 A2992 RMK A01 T02620169  RH  056%=      5-min Rain = 0
KCO2 140513Z 17006KT 26/17 A2992 RMK A01 T02620169  RH  056%=      5-min Rain = 0
KCO2 140514Z 17007KT 26/17 A2992 RMK A01 T02620169  RH  056%=      5-min Rain = 0
KCO2 140515Z 17007KT 26/17 A2992 RMK A01 T02620169  RH  056%=      5-min Rain = 0
KCO2 140516Z 17007KT 26/17 A2992 RMK A01 T02620169  RH  056%=      5-min Rain = 0
KCO2 140517Z 18007KT 26/17 A2992 RMK A01 T02630169  RH  056%=      5-min Rain = 0
KCO2 140518Z 18006KT 26/17 A2992 RMK A01 T02630169  RH  056%=      5-min Rain = 0
KCO2 140519Z 17008KT 26/17 A2993 RMK A01 T02620169  RH  056%=      5-min Rain = 0
KCO2 140520Z 17008KT 26/17 A2993 RMK A01 T02620169  RH  056%=      5-min Rain = 0
KCO2 140521Z 18007KT 26/17 A2993 RMK A01 T02630169  RH  056%=      5-min Rain = 0
KCO2 140522Z 17007KT 26/17 A2993 RMK A01 T02630169  RH  056%=      5-min Rain = 0
KCO2 140523Z 18008KT 26/17 A2993 RMK A01 T02630169  RH  056%=      5-min Rain = 0
KCO2 140524Z 18007KT 26/17 A2993 RMK A01 T02630169  RH  056%=      5-min Rain = 0
KCO2 140525Z 19006KT 26/17 A2993 RMK A01 T02630169  RH  056%=      5-min Rain = 0
KCO2 140526Z 19008KT 26/17 A2993 RMK A01 T02630169  RH  056%=      5-min Rain = 0
KCO2 140527Z 19007KT 26/17 A2993 RMK A01 T02630170  RH  056%=      5-min Rain = 0
KCO2 140528Z 18005KT 26/17 A2993 RMK A01 T02630170  RH  056%=      5-min Rain = 0
KCO2 140529Z 19006G12KT 26/17 A2993 RMK A01 T02620169  RH  057%=      5-min Rain = 0
KCO2 140530Z 19009KT 26/17 A2993 RMK A01 T02620170  RH  057%=      5-min Rain = 0
KCO2 140531Z 19006KT 26/17 A2993 RMK A01 T02620169  RH  056%=      5-min Rain = 0
KCO2 140532Z 19006KT 26/17 A2993 RMK A01 T02630169  RH  056%=      5-min Rain = 0
KCO2 140533Z 18006KT 26/17 A2993 RMK A01 T02620169  RH  057%=      5-min Rain = 0
KCO2 140534Z 20004KT 26/17 A2993 RMK A01 T02620169  RH  057%=      5-min Rain = 0
KCO2 140535Z 19005KT 26/17 A2993 RMK A01 T02620170  RH  057%=      5-min Rain = 0
KCO2 140536Z 19005KT 26/17 A2993 RMK A01 T02610169  RH  057%=      5-min Rain = 0
KCO2 140537Z 19005KT 26/17 A2993 RMK A01 T02610170  RH  057%=      5-min Rain = 0
KCO2 140538Z 19004KT 26/17 A2994 RMK A01 T02600169  RH  057%=      5-min Rain = 0
KCO2 140539Z 19005KT 26/17 A2994 RMK A01 T02590169  RH  057%=      5-min Rain = 0
KCO2 140540Z 18003KT 26/17 A2994 RMK A01 T02590169  RH  057%=      5-min Rain = 0
KCO2 140541Z 18004KT 26/17 A2994 RMK A01 T02590169  RH  058%=      5-min Rain = 0
KCO2 140542Z 19004KT 26/17 A2994 RMK A01 T02580169  RH  058%=      5-min Rain = 0
KCO2 140543Z 18004KT 26/17 A2994 RMK A01 T02570169  RH  058%=      5-min Rain = 0
KCO2 140544Z 19002KT 26/17 A2994 RMK A01 T02570169  RH  058%=      5-min Rain = 0
KCO2 140545Z 18002KT 26/17 A2994 RMK A01 T02560169  RH  059%=      5-min Rain = 0
KCO2 140546Z 18003KT 26/17 A2994 RMK A01 T02550169  RH  059%=      5-min Rain = 0
KCO2 140547Z 19002KT 26/17 A2994 RMK A01 T02550169  RH  059%=      5-min Rain = 0
KCO2 140548Z 19003KT 25/17 A2994 RMK A01 T02540169  RH  059%=      5-min Rain = 0
KCO2 140549Z 19003KT 26/17 A2994 RMK A01 T02550169  RH  059%=      5-min Rain = 0
KCO2 140550Z 18003KT 25/17 A2994 RMK A01 T02540169  RH  059%=      5-min Rain = 0
KCO2 140551Z 18002KT 25/17 A2994 RMK A01 T02530169  RH  060%=      5-min Rain = 0
KCO2 140552Z 17002KT 25/17 A2994 RMK A01 T02530169  RH  060%=      5-min Rain = 0
KCO2 140553Z 17003KT 25/17 A2994 RMK A01 T02530169  RH  060%=      5-min Rain = 0
KCO2 140554Z 18004KT 25/17 A2994 RMK A01 T02520169  RH  060%=      5-min Rain = 0
KCO2 140555Z 18003KT 25/17 A2994 RMK A01 T02510168  RH  060%=      5-min Rain = 0
KCO2 140556Z 18004KT 25/17 A2994 RMK A01 T02490169  RH  061%=      5-min Rain = 0
KCO2 140557Z 18004KT 25/17 A2994 RMK A01 T02490169  RH  061%=      5-min Rain = 0
KCO2 140558Z 17005KT 25/17 A2994 RMK A01 T02500169  RH  061%=      5-min Rain = 0
KCO2 140559Z 18006KT 25/17 A2994 RMK A01 T02490169  RH  061%=      5-min Rain = 0
KCO2 140600Z 17006KT 25/17 A2994 RMK A01 T02500170  RH  061%=      5-min Rain = 0
KCO2 140601Z 18006KT 25/17 A2994 RMK A01 T02500170  RH  061%=      5-min Rain = 0
KCO2 140602Z 18007KT 25/17 A2994 RMK A01 T02510170  RH  061%=      5-min Rain = 0
KCO2 140603Z 18008KT 25/17 A2994 RMK A01 T02520171  RH  060%=      5-min Rain = 0
KCO2 140604Z 18008KT 25/17 A2994 RMK A01 T02530171  RH  060%=      5-min Rain = 0
KCO2 140605Z 18006KT 25/17 A2994 RMK A01 T02540171  RH  060%=      5-min Rain = 0
KCO2 140606Z 19008KT 25/17 A2994 RMK A01 T02540171  RH  060%=      5-min Rain = 0
KCO2 140607Z 19007KT 25/17 A2994 RMK A01 T02540171  RH  060%=      5-min Rain = 0
KCO2 140608Z 18005KT 25/17 A2994 RMK A01 T02540171  RH  060%=      5-min Rain = 0
KCO2 140609Z 18005KT 25/17 A2994 RMK A01 T02540171  RH  060%=      5-min Rain = 0
KCO2 140610Z 18006KT 25/17 A2994 RMK A01 T02530171  RH  060%=      5-min Rain = 0
KCO2 140611Z 18005KT 25/17 A2994 RMK A01 T02520171  RH  060%=      5-min Rain = 0
KCO2 140612Z 18005KT 25/17 A2994 RMK A01 T02520171  RH  061%=      5-min Rain = 0
KCO2 140613Z 17005KT 25/17 A2994 RMK A01 T02510171  RH  061%=      5-min Rain = 0
KCO2 140614Z 17005KT 25/17 A2994 RMK A01 T02500170  RH  061%=      5-min Rain = 0
KCO2 140615Z 17005KT 25/17 A2994 RMK A01 T02490171  RH  062%=      5-min Rain = 0
KCO2 140616Z 18006KT 25/17 A2994 RMK A01 T02480170  RH  062%=      5-min Rain = 0
KCO2 140617Z 17004KT 25/17 A2994 RMK A01 T02480170  RH  062%=      5-min Rain = 0
KCO2 140618Z 16004KT 25/17 A2994 RMK A01 T02480170  RH  062%=      5-min Rain = 0
KCO2 140619Z 16004KT 25/17 A2994 RMK A01 T02480171  RH  062%=      5-min Rain = 0
KCO2 140620Z 16005KT 25/17 A2994 RMK A01 T02470170  RH  062%=      5-min Rain = 0
KCO2 140621Z 15005KT 25/17 A2994 RMK A01 T02460170  RH  063%=      5-min Rain = 0
KCO2 140622Z 15005KT 25/17 A2994 RMK A01 T02460170  RH  063%=      5-min Rain = 0
KCO2 140623Z 15006KT 25/17 A2994 RMK A01 T02450170  RH  063%=      5-min Rain = 0
KCO2 140624Z 16006KT 25/17 A2994 RMK A01 T02450170  RH  063%=      5-min Rain = 0
KCO2 140625Z 15006KT 24/17 A2994 RMK A01 T02440170  RH  063%=      5-min Rain = 0
KCO2 140626Z 15006KT 25/17 A2994 RMK A01 T02450170  RH  063%=      5-min Rain = 0
KCO2 140627Z 15006KT 25/17 A2994 RMK A01 T02450170  RH  063%=      5-min Rain = 0
KCO2 140628Z 15006KT 24/17 A2993 RMK A01 T02440170  RH  063%=      5-min Rain = 0
KCO2 140629Z 14005KT 24/17 A2993 RMK A01 T02430169  RH  063%=      5-min Rain = 0
KCO2 140630Z 14005KT 24/17 A2993 RMK A01 T02430169  RH  064%=      5-min Rain = 0
KCO2 140631Z 14005KT 24/17 A2993 RMK A01 T02420169  RH  064%=      5-min Rain = 0
KCO2 140632Z 14006KT 24/17 A2993 RMK A01 T02410169  RH  064%=      5-min Rain = 0
KCO2 140633Z 14005KT 24/17 A2993 RMK A01 T02400169  RH  064%=      5-min Rain = 0
KCO2 140634Z 14006KT 24/17 A2993 RMK A01 T02390169  RH  065%=      5-min Rain = 0
KCO2 140635Z 14006KT 24/17 A2993 RMK A01 T02400169  RH  065%=      5-min Rain = 0
KCO2 140636Z 14006KT 24/17 A2993 RMK A01 T02390169  RH  065%=      5-min Rain = 0
KCO2 140637Z 14006KT 24/17 A2993 RMK A01 T02390169  RH  065%=      5-min Rain = 0
KCO2 140638Z 14006KT 24/17 A2993 RMK A01 T02380169  RH  065%=      5-min Rain = 0
KCO2 140639Z 14006KT 24/17 A2993 RMK A01 T02380168  RH  065%=      5-min Rain = 0
KCO2 140640Z 15006KT 24/17 A2993 RMK A01 T02380168  RH  065%=      5-min Rain = 0
KCO2 140641Z 15006KT 24/17 A2993 RMK A01 T02390169  RH  065%=      5-min Rain = 0
KCO2 140642Z 15005KT 24/17 A2993 RMK A01 T02400169  RH  064%=      5-min Rain = 0
KCO2 140643Z 15005KT 24/17 A2993 RMK A01 T02400169  RH  064%=      5-min Rain = 0
KCO2 140644Z 14005KT 24/17 A2993 RMK A01 T02400169  RH  064%=      5-min Rain = 0
KCO2 140645Z 14005KT 24/17 A2993 RMK A01 T02400169  RH  064%=      5-min Rain = 0
KCO2 140646Z 14005KT 24/17 A2993 RMK A01 T02400169  RH  064%=      5-min Rain = 0
KCO2 140647Z 14005KT 24/17 A2993 RMK A01 T02400169  RH  065%=      5-min Rain = 0
KCO2 140648Z 14005KT 24/17 A2993 RMK A01 T02390169  RH  065%=      5-min Rain = 0
KCO2 140649Z 14005KT 24/17 A2993 RMK A01 T02390169  RH  065%=      5-min Rain = 0
KCO2 140650Z 14005KT 24/17 A2993 RMK A01 T02380169  RH  065%=      5-min Rain = 0
KCO2 140651Z 14005KT 24/17 A2993 RMK A01 T02370169  RH  065%=      5-min Rain = 0
KCO2 140652Z 14005KT 24/17 A2993 RMK A01 T02380169  RH  065%=      5-min Rain = 0
KCO2 140653Z 14005KT 24/17 A2993 RMK A01 T02370169  RH  066%=      5-min Rain = 0
KCO2 140654Z 13005KT 24/17 A2993 RMK A01 T02360169  RH  066%=      5-min Rain = 0
KCO2 140655Z 14005KT 24/17 A2993 RMK A01 T02350169  RH  066%=      5-min Rain = 0
KCO2 140656Z 13005KT 24/17 A2993 RMK A01 T02350169  RH  067%=      5-min Rain = 0
KCO2 140657Z 14006KT 23/17 A2993 RMK A01 T02340169  RH  067%=      5-min Rain = 0
KCO2 140658Z 14006KT 23/17 A2993 RMK A01 T02330169  RH  067%=      5-min Rain = 0
KCO2 140659Z 14005KT 23/17 A2993 RMK A01 T02330169  RH  067%=      5-min Rain = 0
KCO2 140700Z 14005KT 23/17 A2993 RMK A01 T02330169  RH  067%=      5-min Rain = 0
KCO2 140701Z 14005KT 23/17 A2993 RMK A01 T02330169  RH  067%=      5-min Rain = 0
KCO2 140702Z 14005KT 23/17 A2993 RMK A01 T02330169  RH  067%=      5-min Rain = 0
KCO2 140703Z 14005KT 23/17 A2993 RMK A01 T02330169  RH  067%=      5-min Rain = 0
KCO2 140704Z 14005KT 23/17 A2993 RMK A01 T02340169  RH  067%=      5-min Rain = 0
KCO2 140705Z 14005KT 23/17 A2993 RMK A01 T02340169  RH  067%=      5-min Rain = 0
KCO2 140706Z 14005KT 23/17 A2993 RMK A01 T02340169  RH  067%=      5-min Rain = 0
KCO2 140707Z 14005KT 24/17 A2993 RMK A01 T02350170  RH  067%=      5-min Rain = 0
KCO2 140708Z 14006KT 23/17 A2993 RMK A01 T02340169  RH  067%=      5-min Rain = 0
KCO2 140709Z 14006KT 23/17 A2993 RMK A01 T02340169  RH  067%=      5-min Rain = 0
KCO2 140710Z 14005KT 23/17 A2993 RMK A01 T02330170  RH  067%=      5-min Rain = 0
KCO2 140711Z 14005KT 23/17 A2993 RMK A01 T02330170  RH  067%=      5-min Rain = 0
KCO2 140712Z 14005KT 23/17 A2993 RMK A01 T02330170  RH  068%=      5-min Rain = 0
KCO2 140713Z 14005KT 23/17 A2993 RMK A01 T02330170  RH  068%=      5-min Rain = 0
KCO2 140714Z 14005KT 23/17 A2993 RMK A01 T02330170  RH  068%=      5-min Rain = 0
KCO2 140715Z 13005KT 23/17 A2993 RMK A01 T02320170  RH  068%=      5-min Rain = 0
KCO2 140716Z 13005KT 23/17 A2993 RMK A01 T02310170  RH  068%=      5-min Rain = 0
KCO2 140717Z 13005KT 23/17 A2993 RMK A01 T02310170  RH  068%=      5-min Rain = 0
KCO2 140718Z 14005KT 23/17 A2993 RMK A01 T02310170  RH  069%=      5-min Rain = 0
KCO2 140719Z 14004KT 23/17 A2993 RMK A01 T02300170  RH  069%=      5-min Rain = 0
KCO2 140720Z 14004KT 23/17 A2993 RMK A01 T02300170  RH  069%=      5-min Rain = 0
KCO2 140721Z 14004KT 23/17 A2993 RMK A01 T02300170  RH  069%=      5-min Rain = 0
KCO2 140722Z 14004KT 23/17 A2993 RMK A01 T02290170  RH  069%=      5-min Rain = 0
KCO2 140723Z 14004KT 23/17 A2993 RMK A01 T02290170  RH  069%=      5-min Rain = 0
KCO2 140724Z 14004KT 23/17 A2993 RMK A01 T02290170  RH  070%=      5-min Rain = 0
KCO2 140725Z 14004KT 23/17 A2993 RMK A01 T02280170  RH  070%=      5-min Rain = 0
KCO2 140726Z 13004KT 23/17 A2993 RMK A01 T02280170  RH  070%=      5-min Rain = 0
KCO2 140727Z 13004KT 23/17 A2993 RMK A01 T02280170  RH  070%=      5-min Rain = 0
KCO2 140728Z 13004KT 23/17 A2993 RMK A01 T02280170  RH  070%=      5-min Rain = 0
KCO2 140729Z 13004KT 23/17 A2993 RMK A01 T02280170  RH  070%=      5-min Rain = 0
KCO2 140730Z 13004KT 23/17 A2993 RMK A01 T02280170  RH  070%=      5-min Rain = 0
KCO2 140731Z 13004KT 23/17 A2993 RMK A01 T02280170  RH  070%=      5-min Rain = 0
KCO2 140732Z 13004KT 23/17 A2993 RMK A01 T02280170  RH  070%=      5-min Rain = 0
KCO2 140733Z 13004KT 23/17 A2993 RMK A01 T02280170  RH  070%=      5-min Rain = 0
KCO2 140734Z 13004KT 23/17 A2993 RMK A01 T02280170  RH  070%=      5-min Rain = 0
KCO2 140735Z 13005KT 23/17 A2993 RMK A01 T02280170  RH  070%=      5-min Rain = 0
KCO2 140736Z 13005KT 23/17 A2993 RMK A01 T02280170  RH  070%=      5-min Rain = 0
KCO2 140737Z 13005KT 23/17 A2993 RMK A01 T02270170  RH  070%=      5-min Rain = 0
KCO2 140738Z 13005KT 23/17 A2993 RMK A01 T02260170  RH  071%=      5-min Rain = 0
KCO2 140739Z 13006KT 23/17 A2993 RMK A01 T02250170  RH  071%=      5-min Rain = 0
KCO2 140740Z 13006KT 22/17 A2993 RMK A01 T02240169  RH  071%=      5-min Rain = 0
KCO2 140741Z 13006KT 22/17 A2993 RMK A01 T02240170  RH  071%=      5-min Rain = 0
KCO2 140742Z 13006KT 22/17 A2992 RMK A01 T02230170  RH  072%=      5-min Rain = 0
KCO2 140743Z 13006KT 22/17 A2992 RMK A01 T02230170  RH  072%=      5-min Rain = 0
KCO2 140744Z 13006KT 22/17 A2992 RMK A01 T02230170  RH  072%=      5-min Rain = 0
KCO2 140745Z 14006KT 22/17 A2992 RMK A01 T02230170  RH  072%=      5-min Rain = 0
KCO2 140746Z 14007KT 22/17 A2992 RMK A01 T02230170  RH  072%=      5-min Rain = 0
KCO2 140747Z 14007KT 22/17 A2992 RMK A01 T02220169  RH  072%=      5-min Rain = 0
KCO2 140748Z 14007KT 22/17 A2992 RMK A01 T02210169  RH  072%=      5-min Rain = 0
KCO2 140749Z 14007KT 22/17 A2993 RMK A01 T02210170  RH  073%=      5-min Rain = 0
KCO2 140750Z 15007KT 22/17 A2993 RMK A01 T02210170  RH  073%=      5-min Rain = 0
KCO2 140751Z 15007KT 22/17 A2993 RMK A01 T02210170  RH  073%=      5-min Rain = 0
KCO2 140752Z 15007KT 22/17 A2993 RMK A01 T02210170  RH  073%=      5-min Rain = 0
KCO2 140753Z 15007KT 22/17 A2992 RMK A01 T02210170  RH  073%=      5-min Rain = 0
KCO2 140754Z 15007KT 22/17 A2992 RMK A01 T02210170  RH  073%=      5-min Rain = 0
KCO2 140755Z 15007KT 22/17 A2992 RMK A01 T02220171  RH  073%=      5-min Rain = 0
KCO2 140756Z 15007KT 22/17 A2992 RMK A01 T02220171  RH  072%=      5-min Rain = 0
KCO2 140757Z 15007KT 22/17 A2992 RMK A01 T02230171  RH  072%=      5-min Rain = 0
KCO2 140758Z 16007KT 22/17 A2992 RMK A01 T02230171  RH  072%=      5-min Rain = 0
KCO2 140759Z 16007KT 22/17 A2992 RMK A01 T02240171  RH  072%=      5-min Rain = 0
KCO2 140800Z 16007KT 22/17 A2992 RMK A01 T02240171  RH  072%=      5-min Rain = 0
KCO2 140801Z 16007KT 23/17 A2992 RMK A01 T02250171  RH  072%=      5-min Rain = 0
KCO2 140802Z 16007KT 23/17 A2992 RMK A01 T02260172  RH  071%=      5-min Rain = 0
KCO2 140803Z 16006KT 23/17 A2992 RMK A01 T02270172  RH  071%=      5-min Rain = 0
KCO2 140804Z 16006KT 23/17 A2992 RMK A01 T02270171  RH  071%=      5-min Rain = 0
KCO2 140805Z 16007KT 23/17 A2992 RMK A01 T02270172  RH  071%=      5-min Rain = 0
KCO2 140806Z 16007KT 23/17 A2992 RMK A01 T02270172  RH  071%=      5-min Rain = 0
KCO2 140807Z 16007KT 23/17 A2992 RMK A01 T02280172  RH  071%=      5-min Rain = 0
KCO2 140808Z 16006KT 23/17 A2992 RMK A01 T02280172  RH  071%=      5-min Rain = 0
KCO2 140809Z 16007KT 23/17 A2992 RMK A01 T02280172  RH  070%=      5-min Rain = 0
KCO2 140810Z 16006KT 23/17 A2992 RMK A01 T02280172  RH  071%=      5-min Rain = 0
KCO2 140811Z 16006KT 23/17 A2992 RMK A01 T02280172  RH  071%=      5-min Rain = 0
KCO2 140812Z 16007KT 23/17 A2992 RMK A01 T02290173  RH  071%=      5-min Rain = 0
KCO2 140813Z 16006KT 23/17 A2992 RMK A01 T02280173  RH  071%=      5-min Rain = 0
KCO2 140814Z 16006KT 23/17 A2992 RMK A01 T02280173  RH  071%=      5-min Rain = 0
KCO2 140815Z 16006KT 23/17 A2992 RMK A01 T02270172  RH  071%=      5-min Rain = 0
KCO2 140816Z 16006KT 23/17 A2992 RMK A01 T02270172  RH  071%=      5-min Rain = 0
KCO2 140817Z 16006KT 23/17 A2992 RMK A01 T02270173  RH  071%=      5-min Rain = 0
KCO2 140818Z 16006KT 23/17 A2992 RMK A01 T02280173  RH  071%=      5-min Rain = 0
KCO2 140819Z 15006KT 23/17 A2992 RMK A01 T02280173  RH  071%=      5-min Rain = 0
KCO2 140820Z 16006KT 23/17 A2992 RMK A01 T02270173  RH  071%=      5-min Rain = 0
KCO2 140821Z 15006KT 23/17 A2992 RMK A01 T02270172  RH  071%=      5-min Rain = 0
KCO2 140822Z 15006KT 23/17 A2992 RMK A01 T02280173  RH  071%=      5-min Rain = 0
KCO2 140823Z 15006KT 23/17 A2992 RMK A01 T02280173  RH  071%=      5-min Rain = 0
KCO2 140824Z 15006KT 23/17 A2992 RMK A01 T02280173  RH  071%=      5-min Rain = 0
KCO2 140825Z 15006KT 23/17 A2992 RMK A01 T02280173  RH  071%=      5-min Rain = 0
KCO2 140826Z 15006KT 23/17 A2992 RMK A01 T02280173  RH  071%=      5-min Rain = 0
KCO2 140827Z 14006KT 23/17 A2992 RMK A01 T02280173  RH  071%=      5-min Rain = 0
KCO2 140828Z 15006KT 23/17 A2992 RMK A01 T02280173  RH  071%=      5-min Rain = 0
KCO2 140829Z 15006KT 23/17 A2992 RMK A01 T02290173  RH  071%=      5-min Rain = 0
KCO2 140830Z 15006KT 23/17 A2992 RMK A01 T02290173  RH  071%=      5-min Rain = 0
KCO2 140831Z 15006KT 23/17 A2992 RMK A01 T02290173  RH  071%=      5-min Rain = 0
KCO2 140832Z 14006KT 23/17 A2992 RMK A01 T02290173  RH  071%=      5-min Rain = 0
KCO2 140833Z 14006KT 23/17 A2992 RMK A01 T02290173  RH  071%=      5-min Rain = 0
KCO2 140834Z 14006KT 23/17 A2992 RMK A01 T02290173  RH  071%=      5-min Rain = 0
KCO2 140835Z 15006KT 23/17 A2992 RMK A01 T02290173  RH  071%=      5-min Rain = 0
KCO2 140836Z 15006KT 23/17 A2992 RMK A01 T02290173  RH  071%=      5-min Rain = 0
KCO2 140837Z 15006KT 23/17 A2992 RMK A01 T02290173  RH  071%=      5-min Rain = 0
KCO2 140838Z 15007KT 23/17 A2992 RMK A01 T02300173  RH  071%=      5-min Rain = 0
KCO2 140839Z 15007KT 23/17 A2992 RMK A01 T02300173  RH  070%=      5-min Rain = 0
KCO2 140840Z 15007KT 23/17 A2992 RMK A01 T02310174  RH  070%=      5-min Rain = 0
KCO2 140841Z 14006KT 23/17 A2992 RMK A01 T02310174  RH  070%=      5-min Rain = 0
KCO2 140842Z 14007KT 23/17 A2992 RMK A01 T02310174  RH  070%=      5-min Rain = 0
KCO2 140843Z 14007KT 23/17 A2992 RMK A01 T02310174  RH  070%=      5-min Rain = 0
KCO2 140844Z 14006KT 23/17 A2992 RMK A01 T02320174  RH  070%=      5-min Rain = 0
KCO2 140845Z 14006KT 23/17 A2992 RMK A01 T02320174  RH  070%=      5-min Rain = 0
KCO2 140846Z 14007KT 23/17 A2992 RMK A01 T02320174  RH  070%=      5-min Rain = 0
KCO2 140847Z 14006KT 23/17 A2992 RMK A01 T02310174  RH  070%=      5-min Rain = 0
KCO2 140848Z 14007KT 23/17 A2992 RMK A01 T02310174  RH  070%=      5-min Rain = 0
KCO2 140849Z 14007KT 23/17 A2992 RMK A01 T02310174  RH  070%=      5-min Rain = 0
KCO2 140850Z 14006KT 23/17 A2992 RMK A01 T02300174  RH  070%=      5-min Rain = 0
KCO2 140851Z 15007KT 23/17 A2992 RMK A01 T02300174  RH  071%=      5-min Rain = 0
KCO2 140852Z 15006KT 23/17 A2992 RMK A01 T02290174  RH  071%=      5-min Rain = 0
KCO2 140853Z 15006KT 23/17 A2992 RMK A01 T02290174  RH  071%=      5-min Rain = 0
KCO2 140854Z 15006KT 23/17 A2992 RMK A01 T02280173  RH  071%=      5-min Rain = 0
KCO2 140855Z 15006KT 23/17 A2992 RMK A01 T02280174  RH  071%=      5-min Rain = 0
KCO2 140856Z 15007KT 23/17 A2992 RMK A01 T02280174  RH  071%=      5-min Rain = 0
KCO2 140857Z 15007KT 23/17 A2992 RMK A01 T02280173  RH  071%=      5-min Rain = 0
KCO2 140858Z 15007KT 23/17 A2992 RMK A01 T02270173  RH  071%=      5-min Rain = 0
KCO2 140859Z 16007KT 23/17 A2992 RMK A01 T02270173  RH  071%=      5-min Rain = 0
KCO2 140900Z 15007KT 23/17 A2992 RMK A01 T02270173  RH  071%=      5-min Rain = 0
KCO2 140901Z 16007KT 23/17 A2992 RMK A01 T02280174  RH  071%=      5-min Rain = 0
KCO2 140902Z 16007KT 23/17 A2992 RMK A01 T02280174  RH  071%=      5-min Rain = 0
KCO2 140903Z 16007KT 23/17 A2992 RMK A01 T02280174  RH  071%=      5-min Rain = 0
KCO2 140904Z 16007KT 23/17 A2992 RMK A01 T02280174  RH  071%=      5-min Rain = 0
KCO2 140905Z 16008KT 23/17 A2992 RMK A01 T02290174  RH  071%=      5-min Rain = 0
KCO2 140906Z 16007KT 23/17 A2992 RMK A01 T02300174  RH  071%=      5-min Rain = 0
KCO2 140907Z 16008KT 23/18 A2992 RMK A01 T02300175  RH  071%=      5-min Rain = 0
KCO2 140908Z 16007KT 23/18 A2992 RMK A01 T02310175  RH  071%=      5-min Rain = 0
KCO2 140909Z 17007KT 23/18 A2992 RMK A01 T02310175  RH  070%=      5-min Rain = 0
KCO2 140910Z 16009KT 23/18 A2992 RMK A01 T02320175  RH  070%=      5-min Rain = 0
KCO2 140911Z 16007KT 23/18 A2992 RMK A01 T02330175  RH  070%=      5-min Rain = 0
KCO2 140912Z 16008KT 23/18 A2992 RMK A01 T02330175  RH  070%=      5-min Rain = 0
KCO2 140913Z 17009KT 23/18 A2992 RMK A01 T02340175  RH  070%=      5-min Rain = 0
KCO2 140914Z 16008KT 23/18 A2992 RMK A01 T02340175  RH  069%=      5-min Rain = 0
KCO2 140915Z 16009KT 23/18 A2992 RMK A01 T02340175  RH  069%=      5-min Rain = 0
KCO2 140916Z 16009KT 24/18 A2992 RMK A01 T02350175  RH  069%=      5-min Rain = 0
KCO2 140917Z 16007KT 24/18 A2992 RMK A01 T02350175  RH  069%=      5-min Rain = 0
KCO2 140918Z 15007KT 24/18 A2992 RMK A01 T02350175  RH  069%=      5-min Rain = 0
KCO2 140919Z 16007KT 24/18 A2992 RMK A01 T02350175  RH  069%=      5-min Rain = 0
KCO2 140920Z 15009KT 24/18 A2992 RMK A01 T02350175  RH  069%=      5-min Rain = 0
KCO2 140921Z 16008KT 24/18 A2992 RMK A01 T02350175  RH  069%=      5-min Rain = 0
KCO2 140922Z 16008KT 24/18 A2992 RMK A01 T02350175  RH  069%=      5-min Rain = 0
KCO2 140923Z 15007KT 24/18 A2992 RMK A01 T02350175  RH  069%=      5-min Rain = 0
KCO2 140924Z 15008KT 24/18 A2992 RMK A01 T02350175  RH  069%=      5-min Rain = 0
KCO2 140925Z 15008KT 23/18 A2992 RMK A01 T02340175  RH  069%=      5-min Rain = 0
KCO2 140926Z 15009KT 23/18 A2992 RMK A01 T02340175  RH  070%=      5-min Rain = 0
KCO2 140927Z 15008KT 23/18 A2992 RMK A01 T02340175  RH  070%=      5-min Rain = 0
KCO2 140928Z 15008KT 23/18 A2992 RMK A01 T02340175  RH  070%=      5-min Rain = 0
KCO2 140929Z 15008KT 23/18 A2992 RMK A01 T02330175  RH  070%=      5-min Rain = 0
KCO2 140930Z 15008KT 23/18 A2992 RMK A01 T02330175  RH  070%=      5-min Rain = 0
KCO2 140931Z 15009KT 23/18 A2992 RMK A01 T02330175  RH  070%=      5-min Rain = 0
KCO2 140932Z 15010KT 23/18 A2992 RMK A01 T02330175  RH  070%=      5-min Rain = 0
KCO2 140933Z 16009KT 23/18 A2992 RMK A01 T02330175  RH  070%=      5-min Rain = 0
KCO2 140934Z 16009KT 23/18 A2992 RMK A01 T02330175  RH  070%=      5-min Rain = 0
KCO2 140935Z 15009KT 23/18 A2992 RMK A01 T02330176  RH  070%=      5-min Rain = 0
KCO2 140936Z 16009KT 23/18 A2992 RMK A01 T02330176  RH  070%=      5-min Rain = 0
KCO2 140937Z 16008KT 23/18 A2992 RMK A01 T02320175  RH  070%=      5-min Rain = 0
KCO2 140938Z 16007KT 23/18 A2992 RMK A01 T02320176  RH  071%=      5-min Rain = 0
KCO2 140939Z 16008KT 23/18 A2992 RMK A01 T02310175  RH  071%=      5-min Rain = 0
KCO2 140940Z 16008KT 23/18 A2993 RMK A01 T02310176  RH  071%=      5-min Rain = 0
KCO2 140941Z 16009KT 23/18 A2993 RMK A01 T02310176  RH  071%=      5-min Rain = 0
KCO2 140942Z 16007KT 23/18 A2993 RMK A01 T02310175  RH  071%=      5-min Rain = 0
KCO2 140943Z 16008KT 23/18 A2993 RMK A01 T02310176  RH  071%=      5-min Rain = 0
KCO2 140944Z 16008KT 23/18 A2993 RMK A01 T02310176  RH  071%=      5-min Rain = 0
KCO2 140945Z 16009KT 23/18 A2993 RMK A01 T02310176  RH  071%=      5-min Rain = 0
KCO2 140946Z 16008KT 23/18 A2993 RMK A01 T02310176  RH  071%=      5-min Rain = 0
KCO2 140947Z 16008KT 23/18 A2993 RMK A01 T02300176  RH  071%=      5-min Rain = 0
KCO2 140948Z 16008KT 23/18 A2993 RMK A01 T02300176  RH  071%=      5-min Rain = 0
KCO2 140949Z 16006KT 23/18 A2993 RMK A01 T02300176  RH  071%=      5-min Rain = 0
KCO2 140950Z 16007KT 23/18 A2993 RMK A01 T02300176  RH  071%=      5-min Rain = 0
KCO2 140951Z 16007KT 23/18 A2993 RMK A01 T02300176  RH  072%=      5-min Rain = 0
KCO2 140952Z 16008KT 23/18 A2993 RMK A01 T02300176  RH  072%=      5-min Rain = 0
KCO2 140953Z 16008KT 23/18 A2993 RMK A01 T02290176  RH  072%=      5-min Rain = 0
KCO2 140954Z 17009KT 23/18 A2993 RMK A01 T02290176  RH  072%=      5-min Rain = 0
KCO2 140955Z 16009KT 23/18 A2993 RMK A01 T02290175  RH  072%=      5-min Rain = 0
KCO2 140956Z 16009KT 23/18 A2993 RMK A01 T02300176  RH  071%=      5-min Rain = 0
KCO2 140957Z 16008KT 23/18 A2993 RMK A01 T02300176  RH  071%=      5-min Rain = 0
KCO2 140958Z 16009KT 23/18 A2993 RMK A01 T02300176  RH  071%=      5-min Rain = 0
KCO2 140959Z 16008KT 23/18 A2993 RMK A01 T02300176  RH  071%=      5-min Rain = 0
KCO2 141000Z 16010KT 23/18 A2993 RMK A01 T02300176  RH  071%=      5-min Rain = 0
KCO2 141001Z 16010KT 23/18 A2993 RMK A01 T02300176  RH  071%=      5-min Rain = 0
KCO2 141002Z 16010KT 23/18 A2993 RMK A01 T02300176  RH  071%=      5-min Rain = 0
KCO2 141003Z 17009KT 23/18 A2993 RMK A01 T02300176  RH  071%=      5-min Rain = 0
KCO2 141004Z 16010KT 23/18 A2993 RMK A01 T02300176  RH  071%=      5-min Rain = 0
KCO2 141005Z 16010KT 23/18 A2993 RMK A01 T02300176  RH  071%=      5-min Rain = 0
KCO2 141006Z 16009KT 23/18 A2993 RMK A01 T02300176  RH  071%=      5-min Rain = 0
KCO2 141007Z 17009KT 23/18 A2993 RMK A01 T02300176  RH  071%=      5-min Rain = 0
KCO2 141008Z 16009KT 23/18 A2993 RMK A01 T02300176  RH  072%=      5-min Rain = 0
KCO2 141009Z 16009KT 23/18 A2993 RMK A01 T02300176  RH  072%=      5-min Rain = 0
KCO2 141010Z 16009KT 23/18 A2993 RMK A01 T02300176  RH  072%=      5-min Rain = 0
KCO2 141011Z 17009KT 23/18 A2993 RMK A01 T02290176  RH  072%=      5-min Rain = 0
KCO2 141012Z 15008KT 23/18 A2993 RMK A01 T02290176  RH  072%=      5-min Rain = 0
KCO2 141013Z 16009KT 23/18 A2993 RMK A01 T02290176  RH  072%=      5-min Rain = 0
KCO2 141014Z 16009KT 23/18 A2993 RMK A01 T02290176  RH  072%=      5-min Rain = 0
KCO2 141015Z 16008KT 23/18 A2993 RMK A01 T02290176  RH  072%=      5-min Rain = 0
KCO2 141016Z 16008KT 23/18 A2993 RMK A01 T02290176  RH  072%=      5-min Rain = 0
KCO2 141017Z 16008KT 23/18 A2993 RMK A01 T02290176  RH  072%=      5-min Rain = 0
KCO2 141018Z 16010KT 23/18 A2993 RMK A01 T02290176  RH  072%=      5-min Rain = 0
KCO2 141019Z 15009KT 23/18 A2993 RMK A01 T02290176  RH  072%=      5-min Rain = 0
KCO2 141020Z 16009KT 23/18 A2993 RMK A01 T02290176  RH  072%=      5-min Rain = 0
KCO2 141021Z 16009G14KT 23/18 A2993 RMK A01 T02290176  RH  072%=      5-min Rain = 0
KCO2 141022Z 16009KT 23/18 A2993 RMK A01 T02290177  RH  072%=      5-min Rain = 0
KCO2 141023Z 15009KT 23/18 A2993 RMK A01 T02290177  RH  072%=      5-min Rain = 0
KCO2 141024Z 16008KT 23/18 A2993 RMK A01 T02290177  RH  072%=      5-min Rain = 0
KCO2 141025Z 16008KT 23/18 A2993 RMK A01 T02290177  RH  072%=      5-min Rain = 0
KCO2 141026Z 16010KT 23/18 A2993 RMK A01 T02290177  RH  072%=      5-min Rain = 0
KCO2 141027Z 16009KT 23/18 A2993 RMK A01 T02290177  RH  072%=      5-min Rain = 0
KCO2 141028Z 16009KT 23/18 A2993 RMK A01 T02290177  RH  072%=      5-min Rain = 0
KCO2 141029Z 15009KT 23/18 A2993 RMK A01 T02290177  RH  072%=      5-min Rain = 0
KCO2 141030Z 16009KT 23/18 A2993 RMK A01 T02290177  RH  073%=      5-min Rain = 0
KCO2 141031Z 16011KT 23/18 A2993 RMK A01 T02290177  RH  073%=      5-min Rain = 0
KCO2 141032Z 16011KT 23/18 A2993 RMK A01 T02290178  RH  073%=      5-min Rain = 0
KCO2 141033Z 16008KT 23/18 A2993 RMK A01 T02290177  RH  073%=      5-min Rain = 0
KCO2 141034Z 15008KT 23/18 A2993 RMK A01 T02290177  RH  073%=      5-min Rain = 0
KCO2 141035Z 16007KT 23/18 A2993 RMK A01 T02290178  RH  073%=      5-min Rain = 0
KCO2 141036Z 16009KT 23/18 A2993 RMK A01 T02280177  RH  073%=      5-min Rain = 0
KCO2 141037Z 16009KT 23/18 A2993 RMK A01 T02270177  RH  073%=      5-min Rain = 0
KCO2 141038Z 16009KT 23/18 A2994 RMK A01 T02270177  RH  074%=      5-min Rain = 0
KCO2 141039Z 16008KT 23/18 A2994 RMK A01 T02270177  RH  074%=      5-min Rain = 0
KCO2 141040Z 16010KT 23/18 A2994 RMK A01 T02270178  RH  073%=      5-min Rain = 0
KCO2 141041Z 16009KT 23/18 A2994 RMK A01 T02270178  RH  073%=      5-min Rain = 0
KCO2 141042Z 16008KT 23/18 A2994 RMK A01 T02270178  RH  074%=      5-min Rain = 0
KCO2 141043Z 16009KT 23/18 A2994 RMK A01 T02270178  RH  074%=      5-min Rain = 0
KCO2 141044Z 16010KT 23/18 A2994 RMK A01 T02270178  RH  074%=      5-min Rain = 0
KCO2 141045Z 16009KT 23/18 A2994 RMK A01 T02270178  RH  074%=      5-min Rain = 0
KCO2 141046Z 16010KT 23/18 A2994 RMK A01 T02270178  RH  074%=      5-min Rain = 0
KCO2 141047Z 16008KT 23/18 A2994 RMK A01 T02270178  RH  074%=      5-min Rain = 0
KCO2 141048Z 16009KT 23/18 A2994 RMK A01 T02280179  RH  074%=      5-min Rain = 0
KCO2 141049Z 16009KT 23/18 A2994 RMK A01 T02270179  RH  074%=      5-min Rain = 0
KCO2 141050Z 16009KT 23/18 A2994 RMK A01 T02270179  RH  074%=      5-min Rain = 0
KCO2 141051Z 16009KT 23/18 A2994 RMK A01 T02270179  RH  074%=      5-min Rain = 0
KCO2 141052Z 16008KT 23/18 A2994 RMK A01 T02270179  RH  074%=      5-min Rain = 0
KCO2 141053Z 16010KT 23/18 A2994 RMK A01 T02270179  RH  074%=      5-min Rain = 0
KCO2 141054Z 16009KT 23/18 A2994 RMK A01 T02270179  RH  075%=      5-min Rain = 0
KCO2 141055Z 16009KT 23/18 A2994 RMK A01 T02270179  RH  075%=      5-min Rain = 0
KCO2 141056Z 16009KT 23/18 A2994 RMK A01 T02260179  RH  075%=      5-min Rain = 0
KCO2 141057Z 16008KT 23/18 A2994 RMK A01 T02260179  RH  075%=      5-min Rain = 0
KCO2 141058Z 16010KT 23/18 A2994 RMK A01 T02260180  RH  075%=      5-min Rain = 0
KCO2 141059Z 16008KT 23/18 A2994 RMK A01 T02260180  RH  075%=      5-min Rain = 0
KCO2 141100Z 16008KT 23/18 A2994 RMK A01 T02260179  RH  075%=      5-min Rain = 0
KCO2 141101Z 16009KT 23/18 A2994 RMK A01 T02260179  RH  075%=      5-min Rain = 0
KCO2 141102Z 16008KT 23/18 A2994 RMK A01 T02260180  RH  075%=      5-min Rain = 0
KCO2 141103Z 16008KT 23/18 A2994 RMK A01 T02250180  RH  075%=      5-min Rain = 0
KCO2 141104Z 16009KT 23/18 A2994 RMK A01 T02250180  RH  076%=      5-min Rain = 0
KCO2 141105Z 16007KT 23/18 A2994 RMK A01 T02250180  RH  076%=      5-min Rain = 0
KCO2 141106Z 16009KT 23/18 A2994 RMK A01 T02250180  RH  076%=      5-min Rain = 0
KCO2 141107Z 16008KT 23/18 A2994 RMK A01 T02250180  RH  076%=      5-min Rain = 0
KCO2 141108Z 16008KT 23/18 A2994 RMK A01 T02250181  RH  076%=      5-min Rain = 0
KCO2 141109Z 16009KT 23/18 A2994 RMK A01 T02250181  RH  076%=      5-min Rain = 0
KCO2 141110Z 16009KT 23/18 A2994 RMK A01 T02250181  RH  076%=      5-min Rain = 0
KCO2 141111Z 16008KT 23/18 A2994 RMK A01 T02250180  RH  076%=      5-min Rain = 0
KCO2 141112Z 16008KT 23/18 A2994 RMK A01 T02250181  RH  076%=      5-min Rain = 0
KCO2 141113Z 16007KT 23/18 A2994 RMK A01 T02250181  RH  076%=      5-min Rain = 0
KCO2 141114Z 16009KT 23/18 A2994 RMK A01 T02250181  RH  076%=      5-min Rain = 0
KCO2 141115Z 16007KT 22/18 A2994 RMK A01 T02240181  RH  076%=      5-min Rain = 0
KCO2 141116Z 16008KT 22/18 A2994 RMK A01 T02240181  RH  076%=      5-min Rain = 0
KCO2 141117Z 16009KT 22/18 A2994 RMK A01 T02240181  RH  077%=      5-min Rain = 0
KCO2 141118Z 16008KT 22/18 A2994 RMK A01 T02240181  RH  077%=      5-min Rain = 0
KCO2 141119Z 16009KT 22/18 A2994 RMK A01 T02240181  RH  077%=      5-min Rain = 0
KCO2 141120Z 16009KT 22/18 A2994 RMK A01 T02240182  RH  077%=      5-min Rain = 0
KCO2 141121Z 17007KT 22/18 A2994 RMK A01 T02240181  RH  077%=      5-min Rain = 0
KCO2 141122Z 17008KT 22/18 A2994 RMK A01 T02240181  RH  077%=      5-min Rain = 0
KCO2 141123Z 17008KT 22/18 A2994 RMK A01 T02240182  RH  077%=      5-min Rain = 0
KCO2 141124Z 17008KT 22/18 A2995 RMK A01 T02240182  RH  077%=      5-min Rain = 0
KCO2 141125Z 17008KT 22/18 A2995 RMK A01 T02240182  RH  077%=      5-min Rain = 0
KCO2 141126Z 17009KT 22/18 A2995 RMK A01 T02240182  RH  077%=      5-min Rain = 0
KCO2 141127Z 17008KT 23/18 A2995 RMK A01 T02250182  RH  077%=      5-min Rain = 0
KCO2 141128Z 18008KT 23/18 A2995 RMK A01 T02250182  RH  077%=      5-min Rain = 0
KCO2 141129Z 17007KT 23/18 A2995 RMK A01 T02250182  RH  077%=      5-min Rain = 0
KCO2 141130Z 17006KT 22/18 A2995 RMK A01 T02240182  RH  077%=      5-min Rain = 0
KCO2 141131Z 17005KT 22/18 A2995 RMK A01 T02240182  RH  077%=      5-min Rain = 0
KCO2 141132Z 17006KT 22/18 A2995 RMK A01 T02240182  RH  077%=      5-min Rain = 0
KCO2 141133Z 17006KT 22/18 A2995 RMK A01 T02230182  RH  077%=      5-min Rain = 0
KCO2 141134Z 17007KT 22/18 A2995 RMK A01 T02220182  RH  078%=      5-min Rain = 0
KCO2 141135Z 16005KT 22/18 A2995 RMK A01 T02220182  RH  078%=      5-min Rain = 0
KCO2 141136Z 17005KT 22/18 A2995 RMK A01 T02220182  RH  078%=      5-min Rain = 0
KCO2 141137Z 17006KT 22/18 A2995 RMK A01 T02220182  RH  078%=      5-min Rain = 0
KCO2 141138Z 16006KT 22/18 A2995 RMK A01 T02220182  RH  078%=      5-min Rain = 0
KCO2 141139Z 16006KT 22/18 A2995 RMK A01 T02210182  RH  078%=      5-min Rain = 0
KCO2 141140Z 17006KT 22/18 A2995 RMK A01 T02220182  RH  078%=      5-min Rain = 0
KCO2 141141Z 17005KT 22/18 A2995 RMK A01 T02210182  RH  078%=      5-min Rain = 0
KCO2 141142Z 16006KT 22/18 A2995 RMK A01 T02210182  RH  079%=      5-min Rain = 0
KCO2 141143Z 17007KT 22/18 A2995 RMK A01 T02200182  RH  079%=      5-min Rain = 0
KCO2 141144Z 17006KT 22/18 A2995 RMK A01 T02200182  RH  079%=      5-min Rain = 0
KCO2 141145Z 16007KT 22/18 A2995 RMK A01 T02200182  RH  079%=      5-min Rain = 0
KCO2 141146Z 16007KT 22/18 A2995 RMK A01 T02200183  RH  079%=      5-min Rain = 0
KCO2 141147Z 16006KT 22/18 A2995 RMK A01 T02200182  RH  079%=      5-min Rain = 0
KCO2 141148Z 17005KT 22/18 A2995 RMK A01 T02200182  RH  079%=      5-min Rain = 0
KCO2 141149Z 16006KT 22/18 A2995 RMK A01 T02190182  RH  079%=      5-min Rain = 0
KCO2 141150Z 16007KT 22/18 A2995 RMK A01 T02190182  RH  080%=      5-min Rain = 0
KCO2 141151Z 16006KT 22/18 A2995 RMK A01 T02190182  RH  080%=      5-min Rain = 0
KCO2 141152Z 16006KT 22/18 A2995 RMK A01 T02180182  RH  080%=      5-min Rain = 0
KCO2 141153Z 16005KT 22/18 A2995 RMK A01 T02180182  RH  080%=      5-min Rain = 0
KCO2 141154Z 16005KT 22/18 A2995 RMK A01 T02180182  RH  080%=      5-min Rain = 0
KCO2 141155Z 17006KT 22/18 A2995 RMK A01 T02170182  RH  080%=      5-min Rain = 0
KCO2 141156Z 17006KT 22/18 A2995 RMK A01 T02170182  RH  080%=      5-min Rain = 0
KCO2 141157Z 17006KT 22/18 A2995 RMK A01 T02170182  RH  081%=      5-min Rain = 0
KCO2 141158Z 17006KT 22/18 A2995 RMK A01 T02170182  RH  081%=      5-min Rain = 0
KCO2 141159Z 17006KT 22/18 A2995 RMK A01 T02170183  RH  081%=      5-min Rain = 0
KCO2 141200Z 17006KT 22/18 A2996 RMK A01 T02170183  RH  081%=      5-min Rain = 0
KCO2 141201Z 17005KT 22/18 A2996 RMK A01 T02170183  RH  081%=      5-min Rain = 0
KCO2 141202Z 17006KT 22/18 A2996 RMK A01 T02170183  RH  081%=      5-min Rain = 0
KCO2 141203Z 17005KT 22/18 A2996 RMK A01 T02180183  RH  081%=      5-min Rain = 0
KCO2 141204Z 17005KT 22/18 A2996 RMK A01 T02180183  RH  081%=      5-min Rain = 0
KCO2 141205Z 17005KT 22/18 A2996 RMK A01 T02180183  RH  080%=      5-min Rain = 0
KCO2 141206Z 17005KT 22/18 A2996 RMK A01 T02180183  RH  081%=      5-min Rain = 0
KCO2 141207Z 17005KT 22/18 A2996 RMK A01 T02180183  RH  081%=      5-min Rain = 0
KCO2 141208Z 16004KT 22/18 A2996 RMK A01 T02180183  RH  081%=      5-min Rain = 0
KCO2 141209Z 17005KT 22/18 A2996 RMK A01 T02180183  RH  081%=      5-min Rain = 0
KCO2 141210Z 17005KT 22/18 A2996 RMK A01 T02180184  RH  081%=      5-min Rain = 0
KCO2 141211Z 17005KT 22/18 A2996 RMK A01 T02170183  RH  081%=      5-min Rain = 0
KCO2 141212Z 17004KT 22/18 A2996 RMK A01 T02170183  RH  081%=      5-min Rain = 0
KCO2 141213Z 17004KT 22/18 A2996 RMK A01 T02170184  RH  081%=      5-min Rain = 0
KCO2 141214Z 17004KT 22/18 A2997 RMK A01 T02180184  RH  081%=      5-min Rain = 0
KCO2 141215Z 17004KT 22/18 A2997 RMK A01 T02180184  RH  081%=      5-min Rain = 0
KCO2 141216Z 17004KT 22/18 A2997 RMK A01 T02170184  RH  081%=      5-min Rain = 0
KCO2 141217Z 17004KT 22/18 A2997 RMK A01 T02180184  RH  081%=      5-min Rain = 0
KCO2 141218Z 17005KT 22/19 A2997 RMK A01 T02180185  RH  081%=      5-min Rain = 0
KCO2 141219Z 17005KT 22/18 A2997 RMK A01 T02180184  RH  081%=      5-min Rain = 0
KCO2 141220Z 17004KT 22/19 A2997 RMK A01 T02190185  RH  081%=      5-min Rain = 0
KCO2 141221Z 17005KT 22/19 A2997 RMK A01 T02190185  RH  081%=      5-min Rain = 0
KCO2 141222Z 17005KT 22/19 A2997 RMK A01 T02200185  RH  081%=      5-min Rain = 0
KCO2 141223Z 17005KT 22/19 A2996 RMK A01 T02200185  RH  081%=      5-min Rain = 0
KCO2 141224Z 17006KT 22/19 A2996 RMK A01 T02200185  RH  081%=      5-min Rain = 0
KCO2 141225Z 16005KT 22/19 A2996 RMK A01 T02200185  RH  080%=      5-min Rain = 0
KCO2 141226Z 16006KT 22/19 A2996 RMK A01 T02210186  RH  080%=      5-min Rain = 0
KCO2 141227Z 16007KT 22/19 A2996 RMK A01 T02210186  RH  080%=      5-min Rain = 0
KCO2 141228Z 16006KT 22/19 A2996 RMK A01 T02220186  RH  080%=      5-min Rain = 0
KCO2 141229Z 16007KT 22/19 A2996 RMK A01 T02220186  RH  080%=      5-min Rain = 0
KCO2 141230Z 16006KT 22/19 A2996 RMK A01 T02220186  RH  080%=      5-min Rain = 0
KCO2 141231Z 16006KT 22/19 A2996 RMK A01 T02230186  RH  080%=      5-min Rain = 0
KCO2 141232Z 16006KT 22/19 A2996 RMK A01 T02230186  RH  080%=      5-min Rain = 0
KCO2 141233Z 16007KT 22/19 A2996 RMK A01 T02230186  RH  080%=      5-min Rain = 0
KCO2 141234Z 16005KT 22/19 A2996 RMK A01 T02240187  RH  080%=      5-min Rain = 0
KCO2 141235Z 16007KT 22/19 A2996 RMK A01 T02240187  RH  080%=      5-min Rain = 0
KCO2 141236Z 16007KT 22/19 A2996 RMK A01 T02240186  RH  079%=      5-min Rain = 0
KCO2 141237Z 16006KT 23/19 A2996 RMK A01 T02250187  RH  079%=      5-min Rain = 0
KCO2 141238Z 16006KT 23/19 A2996 RMK A01 T02250187  RH  079%=      5-min Rain = 0
KCO2 141239Z 17006KT 23/19 A2997 RMK A01 T02260187  RH  079%=      5-min Rain = 0
KCO2 141240Z 16007KT 23/19 A2997 RMK A01 T02260187  RH  079%=      5-min Rain = 0
KCO2 141241Z 16008KT 23/19 A2997 RMK A01 T02260187  RH  079%=      5-min Rain = 0
KCO2 141242Z 17007KT 23/19 A2997 RMK A01 T02270188  RH  079%=      5-min Rain = 0
KCO2 141243Z 15006KT 23/19 A2997 RMK A01 T02270188  RH  078%=      5-min Rain = 0
KCO2 141244Z 16007KT 23/19 A2997 RMK A01 T02280188  RH  078%=      5-min Rain = 0
KCO2 141245Z 16009KT 23/19 A2997 RMK A01 T02280188  RH  078%=      5-min Rain = 0
KCO2 141246Z 16009KT 23/19 A2996 RMK A01 T02280188  RH  078%=      5-min Rain = 0
KCO2 141247Z 15008KT 23/19 A2997 RMK A01 T02290188  RH  078%=      5-min Rain = 0
KCO2 141248Z 15008KT 23/19 A2997 RMK A01 T02290189  RH  078%=      5-min Rain = 0
KCO2 141249Z 16008KT 23/19 A2997 RMK A01 T02290189  RH  078%=      5-min Rain = 0
KCO2 141250Z 16009KT 23/19 A2997 RMK A01 T02300189  RH  078%=      5-min Rain = 0
KCO2 141251Z 15008KT 23/19 A2997 RMK A01 T02300189  RH  078%=      5-min Rain = 0
KCO2 141252Z 16008KT 23/19 A2997 RMK A01 T02310189  RH  078%=      5-min Rain = 0
KCO2 141253Z 15008KT 23/19 A2997 RMK A01 T02310190  RH  077%=      5-min Rain = 0
KCO2 141254Z 15007KT 23/19 A2997 RMK A01 T02310190  RH  077%=      5-min Rain = 0
KCO2 141255Z 15007KT 23/19 A2997 RMK A01 T02320190  RH  077%=      5-min Rain = 0
KCO2 141256Z 15007KT 23/19 A2997 RMK A01 T02320190  RH  077%=      5-min Rain = 0
KCO2 141257Z 16005KT 23/19 A2997 RMK A01 T02330191  RH  077%=      5-min Rain = 0
KCO2 141258Z 15007KT 23/19 A2997 RMK A01 T02340191  RH  077%=      5-min Rain = 0
KCO2 141259Z 16007KT 24/19 A2997 RMK A01 T02350191  RH  076%=      5-min Rain = 0
KCO2 141300Z 16007KT 24/19 A2997 RMK A01 T02350191  RH  076%=      5-min Rain = 0
KCO2 141301Z 16007KT 24/19 A2997 RMK A01 T02360191  RH  076%=      5-min Rain = 0
KCO2 141302Z 16006KT 24/19 A2997 RMK A01 T02370192  RH  076%=      5-min Rain = 0
KCO2 141303Z 16006KT 24/19 A2997 RMK A01 T02380192  RH  075%=      5-min Rain = 0
KCO2 141304Z 17006KT 24/19 A2997 RMK A01 T02390192  RH  075%=      5-min Rain = 0
KCO2 141305Z 15009KT 24/19 A2997 RMK A01 T02400192  RH  075%=      5-min Rain = 0
KCO2 141306Z 16010KT 24/19 A2997 RMK A01 T02410192  RH  074%=      5-min Rain = 0
KCO2 141307Z 16009KT 24/19 A2997 RMK A01 T02410191  RH  074%=      5-min Rain = 0
KCO2 141308Z 15008KT 24/19 A2997 RMK A01 T02410192  RH  074%=      5-min Rain = 0
KCO2 141309Z 16008KT 24/19 A2997 RMK A01 T02420193  RH  074%=      5-min Rain = 0
KCO2 141310Z 16007KT 24/19 A2997 RMK A01 T02440192  RH  073%=      5-min Rain = 0
KCO2 141311Z 16007KT 25/19 A2997 RMK A01 T02450193  RH  073%=      5-min Rain = 0
KCO2 141312Z 17007KT 25/20 A2997 RMK A01 T02460195  RH  073%=      5-min Rain = 0
KCO2 141313Z 17006KT 25/19 A2997 RMK A01 T02470193  RH  072%=      5-min Rain = 0
KCO2 141314Z 16009KT 25/19 A2997 RMK A01 T02480194  RH  072%=      5-min Rain = 0
KCO2 141315Z 16008KT 25/19 A2997 RMK A01 T02480194  RH  072%=      5-min Rain = 0
KCO2 141316Z 16008KT 25/19 A2997 RMK A01 T02470193  RH  072%=      5-min Rain = 0
KCO2 141317Z 18008KT 25/19 A2997 RMK A01 T02460194  RH  073%=      5-min Rain = 0
KCO2 141318Z 18010KT 25/19 A2997 RMK A01 T02460194  RH  073%=      5-min Rain = 0
KCO2 141319Z 16008KT 25/19 A2998 RMK A01 T02460194  RH  073%=      5-min Rain = 0
KCO2 141320Z 17008KT 25/19 A2998 RMK A01 T02460194  RH  073%=      5-min Rain = 0
KCO2 141321Z 18011KT 25/19 A2998 RMK A01 T02470194  RH  073%=      5-min Rain = 0
KCO2 141322Z 17007KT 25/19 A2998 RMK A01 T02460194  RH  073%=      5-min Rain = 0
KCO2 141323Z 17008KT 25/19 A2998 RMK A01 T02460194  RH  073%=      5-min Rain = 0
KCO2 141324Z 17006KT 25/19 A2998 RMK A01 T02460194  RH  073%=      5-min Rain = 0
KCO2 141325Z 18008KT 25/19 A2998 RMK A01 T02460194  RH  073%=      5-min Rain = 0
KCO2 141326Z 17006KT 25/19 A2998 RMK A01 T02460194  RH  073%=      5-min Rain = 0
KCO2 141327Z 17008KT 25/19 A2998 RMK A01 T02460194  RH  073%=      5-min Rain = 0
KCO2 141328Z 19008KT 25/19 A2998 RMK A01 T02460194  RH  073%=      5-min Rain = 0
KCO2 141329Z 17010KT 25/19 A2998 RMK A01 T02460194  RH  073%=      5-min Rain = 0
KCO2 141330Z 17008KT 25/19 A2998 RMK A01 T02470194  RH  073%=      5-min Rain = 0
KCO2 141331Z 17010KT 25/19 A2998 RMK A01 T02470194  RH  073%=      5-min Rain = 0
KCO2 141332Z 17008KT 25/19 A2998 RMK A01 T02470194  RH  072%=      5-min Rain = 0
KCO2 141333Z 16007KT 25/19 A2998 RMK A01 T02470194  RH  073%=      5-min Rain = 0
KCO2 141334Z 18009KT 25/19 A2998 RMK A01 T02470194  RH  073%=      5-min Rain = 0
KCO2 141335Z 17010KT 25/19 A2998 RMK A01 T02470194  RH  073%=      5-min Rain = 0
KCO2 141336Z 18011KT 25/19 A2998 RMK A01 T02460194  RH  073%=      5-min Rain = 0
KCO2 141337Z 17011KT 25/19 A2998 RMK A01 T02460194  RH  073%=      5-min Rain = 0
KCO2 141338Z 17009KT 25/20 A2998 RMK A01 T02460195  RH  073%=      5-min Rain = 0
KCO2 141339Z 18009KT 25/19 A2998 RMK A01 T02460194  RH  073%=      5-min Rain = 0
KCO2 141340Z 18009KT 25/19 A2998 RMK A01 T02460194  RH  073%=      5-min Rain = 0
KCO2 141341Z 17009KT 25/20 A2998 RMK A01 T02460195  RH  073%=      5-min Rain = 0
KCO2 141342Z 16010KT 25/20 A2998 RMK A01 T02470195  RH  073%=      5-min Rain = 0
KCO2 141343Z 17011KT 25/19 A2998 RMK A01 T02470194  RH  072%=      5-min Rain = 0
KCO2 141344Z 17010KT 25/20 A2998 RMK A01 T02470195  RH  072%=      5-min Rain = 0
KCO2 141345Z 17010G15KT 25/20 A2998 RMK A01 T02470195  RH  073%=      5-min Rain = 0
KCO2 141346Z 18012KT 25/19 A2998 RMK A01 T02480194  RH  072%=      5-min Rain = 0
KCO2 141347Z 17013KT 25/19 A2998 RMK A01 T02480194  RH  072%=      5-min Rain = 0
KCO2 141348Z 17010KT 25/19 A2998 RMK A01 T02480194  RH  072%=      5-min Rain = 0
KCO2 141349Z 16011KT 25/19 A2998 RMK A01 T02480194  RH  072%=      5-min Rain = 0
KCO2 141350Z 17011KT 25/19 A2998 RMK A01 T02490194  RH  071%=      5-min Rain = 0
KCO2 141351Z 17009KT 25/20 A2998 RMK A01 T02510195  RH  071%=      5-min Rain = 0
KCO2 141352Z 17011KT 25/20 A2998 RMK A01 T02520195  RH  070%=      5-min Rain = 0
KCO2 141353Z 17009KT 25/20 A2998 RMK A01 T02530195  RH  070%=      5-min Rain = 0
KCO2 141354Z 17011KT 25/20 A2998 RMK A01 T02540195  RH  070%=      5-min Rain = 0
KCO2 141355Z 18011KT 25/19 A2998 RMK A01 T02540194  RH  070%=      5-min Rain = 0
KCO2 141356Z 17010KT 25/20 A2998 RMK A01 T02540195  RH  070%=      5-min Rain = 0
KCO2 141357Z 16011KT 25/19 A2998 RMK A01 T02530194  RH  070%=      5-min Rain = 0
KCO2 141358Z 17011KT 25/20 A2998 RMK A01 T02540195  RH  070%=      5-min Rain = 0
KCO2 141359Z 18012KT 25/19 A2998 RMK A01 T02540194  RH  069%=      5-min Rain = 0
KCO2 141400Z 17011KT 25/19 A2998 RMK A01 T02540194  RH  069%=      5-min Rain = 0
KCO2 141401Z 17010KT 25/20 A2997 RMK A01 T02540195  RH  070%=      5-min Rain = 0
KCO2 141402Z 16012KT 26/20 A2997 RMK A01 T02550195  RH  069%=      5-min Rain = 0
KCO2 141403Z 17012KT 25/19 A2997 RMK A01 T02540194  RH  069%=      5-min Rain = 0
KCO2 141404Z 17013KT 25/19 A2997 RMK A01 T02540194  RH  069%=      5-min Rain = 0
KCO2 141405Z 17010KT 26/19 A2997 RMK A01 T02550194  RH  069%=      5-min Rain = 0
KCO2 141406Z 16012KT 26/20 A2998 RMK A01 T02550195  RH  069%=      5-min Rain = 0
KCO2 141407Z 17011KT 26/19 A2998 RMK A01 T02560194  RH  069%=      5-min Rain = 0
KCO2 141408Z 18012KT 26/19 A2998 RMK A01 T02560194  RH  069%=      5-min Rain = 0
KCO2 141409Z 18013KT 26/20 A2998 RMK A01 T02560195  RH  069%=      5-min Rain = 0
KCO2 141410Z 17015KT 26/20 A2998 RMK A01 T02560195  RH  069%=      5-min Rain = 0
KCO2 141411Z 17013KT 26/19 A2998 RMK A01 T02560194  RH  068%=      5-min Rain = 0
KCO2 141412Z 18011KT 26/19 A2998 RMK A01 T02550193  RH  069%=      5-min Rain = 0
KCO2 141413Z 18012KT 26/19 A2998 RMK A01 T02550194  RH  069%=      5-min Rain = 0
KCO2 141414Z 18014KT 26/19 A2998 RMK A01 T02550193  RH  069%=      5-min Rain = 0
KCO2 141415Z 17012G17KT 26/19 A2998 RMK A01 T02550193  RH  069%=      5-min Rain = 0
KCO2 141416Z 17013KT 26/19 A2998 RMK A01 T02560194  RH  069%=      5-min Rain = 0
KCO2 141417Z 17014KT 26/19 A2998 RMK A01 T02560193  RH  068%=      5-min Rain = 0
KCO2 141418Z 18010KT 26/19 A2998 RMK A01 T02570194  RH  068%=      5-min Rain = 0
KCO2 141419Z 18012KT 26/20 A2998 RMK A01 T02590195  RH  068%=      5-min Rain = 0
KCO2 141420Z 18012KT 26/20 A2998 RMK A01 T02600195  RH  067%=      5-min Rain = 0
KCO2 141421Z 20013KT 26/20 A2998 RMK A01 T02610195  RH  067%=      5-min Rain = 0
KCO2 141422Z 19011KT 26/19 A2998 RMK A01 T02620194  RH  066%=      5-min Rain = 0
KCO2 141423Z 18009KT 26/20 A2998 RMK A01 T02640195  RH  066%=      5-min Rain = 0
KCO2 141424Z 17013KT 27/20 A2998 RMK A01 T02680196  RH  065%=      5-min Rain = 0
KCO2 141425Z 18012KT 27/20 A2998 RMK A01 T02700195  RH  063%=      5-min Rain = 0
KCO2 141426Z 18013KT 27/20 A2998 RMK A01 T02700195  RH  063%=      5-min Rain = 0
KCO2 141427Z 17014KT 27/20 A2998 RMK A01 T02690195  RH  064%=      5-min Rain = 0
KCO2 141428Z 18012KT 27/19 A2998 RMK A01 T02680194  RH  064%=      5-min Rain = 0
KCO2 141429Z 18014KT 27/19 A2998 RMK A01 T02670193  RH  064%=      5-min Rain = 0
KCO2 141430Z 17013KT 27/20 A2998 RMK A01 T02670195  RH  064%=      5-min Rain = 0
KCO2 141431Z 16013KT 27/19 A2998 RMK A01 T02670193  RH  064%=      5-min Rain = 0
KCO2 141432Z 18010KT 27/19 A2998 RMK A01 T02680194  RH  064%=      5-min Rain = 0
KCO2 141433Z 17012KT 27/19 A2998 RMK A01 T02670194  RH  064%=      5-min Rain = 0
KCO2 141434Z 16013KT 27/19 A2998 RMK A01 T02680193  RH  063%=      5-min Rain = 0
KCO2 141435Z 18015KT 27/19 A2998 RMK A01 T02690194  RH  064%=      5-min Rain = 0
KCO2 141436Z 17014KT 27/19 A2998 RMK A01 T02680193  RH  063%=      5-min Rain = 0
KCO2 141437Z 18014KT 27/19 A2998 RMK A01 T02680194  RH  064%=      5-min Rain = 0
KCO2 141438Z 18014KT 27/19 A2998 RMK A01 T02660192  RH  064%=      5-min Rain = 0
KCO2 141439Z 18013KT 27/19 A2998 RMK A01 T02650192  RH  064%=      5-min Rain = 0
KCO2 141440Z 17012KT 26/19 A2998 RMK A01 T02640193  RH  065%=      5-min Rain = 0
KCO2 141441Z 18012G18KT 26/19 A2998 RMK A01 T02640194  RH  065%=      5-min Rain = 0
KCO2 141442Z 18014KT 27/19 A2998 RMK A01 T02660193  RH  064%=      5-min Rain = 0
KCO2 141443Z 18013KT 27/19 A2998 RMK A01 T02670194  RH  064%=      5-min Rain = 0
KCO2 141444Z 17014KT 27/19 A2998 RMK A01 T02700194  RH  063%=      5-min Rain = 0
KCO2 141445Z 17015KT 27/20 A2997 RMK A01 T02720195  RH  063%=      5-min Rain = 0
KCO2 141446Z 18015KT 27/19 A2997 RMK A01 T02720194  RH  062%=      5-min Rain = 0
KCO2 141447Z 19013KT 27/19 A2997 RMK A01 T02700192  RH  062%=      5-min Rain = 0
KCO2 141448Z 18012G17KT 27/19 A2997 RMK A01 T02700193  RH  063%=      5-min Rain = 0
KCO2 141449Z 17012G17KT 27/19 A2997 RMK A01 T02720194  RH  062%=      5-min Rain = 0
KCO2 141450Z 18017KT 27/19 A2997 RMK A01 T02740193  RH  061%=      5-min Rain = 0
KCO2 141451Z 18014G19KT 27/19 A2997 RMK A01 T02720192  RH  061%=      5-min Rain = 0
KCO2 141452Z 18014KT 27/19 A2997 RMK A01 T02700192  RH  062%=      5-min Rain = 0
KCO2 141453Z 17014G20KT 27/19 A2997 RMK A01 T02700193  RH  063%=      5-min Rain = 0
KCO2 141454Z 17017KT 27/19 A2997 RMK A01 T02710193  RH  062%=      5-min Rain = 0
KCO2 141455Z 17015KT 27/19 A2997 RMK A01 T02710193  RH  062%=      5-min Rain = 0
KCO2 141456Z 18011KT 27/19 A2998 RMK A01 T02700193  RH  063%=      5-min Rain = 0
KCO2 141457Z 18011G17KT 27/19 A2998 RMK A01 T02720194  RH  062%=      5-min Rain = 0
KCO2 141458Z 18013KT 27/19 A2998 RMK A01 T02730193  RH  061%=      5-min Rain = 0
KCO2 141459Z 16012KT 27/19 A2998 RMK A01 T02710193  RH  062%=      5-min Rain = 0
KCO2 141500Z 18012KT 27/19 A2998 RMK A01 T02700193  RH  063%=      5-min Rain = 0
KCO2 141501Z 19013KT 27/19 A2998 RMK A01 T02690192  RH  063%=      5-min Rain = 0
KCO2 141502Z 19015KT 27/19 A2998 RMK A01 T02670191  RH  063%=      5-min Rain = 0
KCO2 141503Z 18015KT 27/19 A2998 RMK A01 T02670191  RH  063%=      5-min Rain = 0
KCO2 141504Z 17012KT 27/19 A2998 RMK A01 T02670192  RH  063%=      5-min Rain = 0
KCO2 141505Z 17013KT 27/19 A2998 RMK A01 T02700193  RH  063%=      5-min Rain = 0
KCO2 141506Z 18011KT 27/19 A2998 RMK A01 T02730194  RH  062%=      5-min Rain = 0
KCO2 141507Z 17012KT 28/19 A2998 RMK A01 T02770194  RH  061%=      5-min Rain = 0
KCO2 141508Z 18015KT 28/19 A2998 RMK A01 T02790193  RH  060%=      5-min Rain = 0
KCO2 141509Z 19014KT 28/19 A2998 RMK A01 T02770193  RH  060%=      5-min Rain = 0
KCO2 141510Z 19012KT 28/19 A2998 RMK A01 T02760193  RH  061%=      5-min Rain = 0
KCO2 141511Z 18013KT 28/19 A2998 RMK A01 T02760194  RH  061%=      5-min Rain = 0
KCO2 141512Z 17010KT 28/19 A2998 RMK A01 T02760194  RH  061%=      5-min Rain = 0
KCO2 141513Z 18013KT 28/19 A2998 RMK A01 T02770194  RH  061%=      5-min Rain = 0
KCO2 141514Z 18012KT 28/19 A2998 RMK A01 T02760193  RH  061%=      5-min Rain = 0
KCO2 141515Z 18017KT 28/19 A2998 RMK A01 T02750192  RH  061%=      5-min Rain = 0
KCO2 141516Z 18013KT 27/19 A2998 RMK A01 T02730191  RH  061%=      5-min Rain = 0
KCO2 141517Z 17014KT 27/19 A2998 RMK A01 T02720192  RH  062%=      5-min Rain = 0
KCO2 141518Z 18013KT 27/19 A2998 RMK A01 T02740193  RH  061%=      5-min Rain = 0
KCO2 141519Z 19010KT 28/19 A2998 RMK A01 T02760193  RH  060%=      5-min Rain = 0
KCO2 141520Z 20012KT 28/19 A2998 RMK A01 T02790193  RH  060%=      5-min Rain = 0
KCO2 141521Z 18014KT 28/19 A2998 RMK A01 T02800193  RH  059%=      5-min Rain = 0
KCO2 141522Z 18016KT 28/19 A2998 RMK A01 T02820194  RH  059%=      5-min Rain = 0
KCO2 141523Z 17017KT 28/19 A2998 RMK A01 T02820194  RH  059%=      5-min Rain = 0
KCO2 141524Z 17014KT 28/19 A2998 RMK A01 T02810194  RH  059%=      5-min Rain = 0
KCO2 141525Z 17012KT 28/19 A2998 RMK A01 T02810194  RH  059%=      5-min Rain = 0
KCO2 141526Z 17012KT 28/19 A2998 RMK A01 T02810194  RH  059%=      5-min Rain = 0
KCO2 141527Z 17012G20KT 28/19 A2998 RMK A01 T02810193  RH  059%=      5-min Rain = 0
KCO2 141528Z 18013KT 28/19 A2998 RMK A01 T02800193  RH  059%=      5-min Rain = 0
KCO2 141529Z 17017KT 28/19 A2998 RMK A01 T02790193  RH  059%=      5-min Rain = 0
KCO2 141530Z 18016KT 28/19 A2998 RMK A01 T02770192  RH  060%=      5-min Rain = 0
KCO2 141531Z 19014KT 28/19 A2998 RMK A01 T02750192  RH  060%=      5-min Rain = 0
KCO2 141532Z 20015KT 27/19 A2998 RMK A01 T02740192  RH  061%=      5-min Rain = 0
KCO2 141533Z 19013KT 27/19 A2998 RMK A01 T02740192  RH  061%=      5-min Rain = 0
KCO2 141534Z 19013KT 27/19 A2998 RMK A01 T02740193  RH  061%=      5-min Rain = 0
KCO2 141535Z 19011KT 27/19 A2998 RMK A01 T02740193  RH  061%=      5-min Rain = 0
KCO2 141536Z 19010G15KT 28/19 A2998 RMK A01 T02760193  RH  061%=      5-min Rain = 0
KCO2 141537Z 20012KT 28/19 A2998 RMK A01 T02780194  RH  060%=      5-min Rain = 0
KCO2 141538Z 19013KT 28/20 A2998 RMK A01 T02810195  RH  059%=      5-min Rain = 0
KCO2 141539Z 18010KT 28/20 A2998 RMK A01 T02830195  RH  059%=      5-min Rain = 0
KCO2 141540Z 19014KT 29/20 A2998 RMK A01 T02860195  RH  058%=      5-min Rain = 0
KCO2 141541Z 19012KT 29/19 A2998 RMK A01 T02850194  RH  058%=      5-min Rain = 0
KCO2 141542Z 18012KT 29/19 A2998 RMK A01 T02850194  RH  058%=      5-min Rain = 0
KCO2 141543Z 19012KT 29/19 A2998 RMK A01 T02860194  RH  058%=      5-min Rain = 0
KCO2 141544Z 19011KT 29/20 A2998 RMK A01 T02860195  RH  058%=      5-min Rain = 0
KCO2 141545Z 18014G19KT 29/20 A2998 RMK A01 T02870195  RH  058%=      5-min Rain = 0
KCO2 141546Z 19014KT 29/19 A2998 RMK A01 T02890194  RH  056%=      5-min Rain = 0
KCO2 141547Z 18012KT 29/20 A2998 RMK A01 T02890195  RH  057%=      5-min Rain = 0
KCO2 141548Z 18012KT 29/20 A2998 RMK A01 T02900195  RH  056%=      5-min Rain = 0
KCO2 141549Z 18012G17KT 29/19 A2998 RMK A01 T02910194  RH  056%=      5-min Rain = 0
KCO2 141550Z 18014KT 29/20 A2998 RMK A01 T02900195  RH  056%=      5-min Rain = 0
KCO2 141551Z 17014KT 29/20 A2998 RMK A01 T02900195  RH  057%=      5-min Rain = 0
KCO2 141552Z 17012KT 29/20 A2998 RMK A01 T02910196  RH  056%=      5-min Rain = 0
KCO2 141553Z 19014G19KT 29/20 A2998 RMK A01 T02900195  RH  057%=      5-min Rain = 0
KCO2 141554Z 19014G19KT 29/19 A2998 RMK A01 T02900193  RH  056%=      5-min Rain = 0
KCO2 141555Z 19012KT 29/19 A2998 RMK A01 T02890193  RH  056%=      5-min Rain = 0
KCO2 141556Z 21009KT 29/20 A2998 RMK A01 T02880195  RH  057%=      5-min Rain = 0
KCO2 141557Z 20010KT 29/20 A2998 RMK A01 T02920195  RH  056%=      5-min Rain = 0
KCO2 141558Z 17010KT 29/20 A2998 RMK A01 T02930195  RH  056%=      5-min Rain = 0
KCO2 141559Z 19011KT 30/20 A2998 RMK A01 T02950196  RH  055%=      5-min Rain = 0
KCO2 141600Z 19011KT 30/20 A2998 RMK A01 T02960195  RH  054%=      5-min Rain = 0
KCO2 141601Z 19009KT 29/20 A2997 RMK A01 T02940195  RH  055%=      5-min Rain = 0
KCO2 141602Z 20012KT 30/20 A2997 RMK A01 T02960195  RH  055%=      5-min Rain = 0
KCO2 141603Z 20013KT 30/20 A2997 RMK A01 T02970195  RH  054%=      5-min Rain = 0
KCO2 141604Z 22014KT 30/20 A2997 RMK A01 T03000195  RH  053%=      5-min Rain = 0
KCO2 141605Z 21011KT 30/19 A2997 RMK A01 T02980193  RH  053%=      5-min Rain = 0
KCO2 141606Z 18011KT 30/20 A2997 RMK A01 T02960195  RH  054%=      5-min Rain = 0
KCO2 141607Z 19011KT 30/20 A2997 RMK A01 T02980196  RH  054%=      5-min Rain = 0
KCO2 141608Z 19011KT 30/20 A2997 RMK A01 T03010195  RH  053%=      5-min Rain = 0
KCO2 141609Z 21012G18KT 30/19 A2998 RMK A01 T02980192  RH  053%=      5-min Rain = 0
KCO2 141610Z 21014KT 29/19 A2998 RMK A01 T02940188  RH  053%=      5-min Rain = 0
KCO2 141611Z 22013KT 29/19 A2998 RMK A01 T02890187  RH  054%=      5-min Rain = 0
KCO2 141612Z 21011KT 29/19 A2998 RMK A01 T02870189  RH  056%=      5-min Rain = 0
KCO2 141613Z 22009KT 29/19 A2998 RMK A01 T02900191  RH  055%=      5-min Rain = 0
KCO2 141614Z 21012KT 29/19 A2997 RMK A01 T02930193  RH  055%=      5-min Rain = 0
KCO2 141615Z 21010KT 29/19 A2997 RMK A01 T02920192  RH  055%=      5-min Rain = 0
KCO2 141616Z 21009KT 29/19 A2997 RMK A01 T02900193  RH  056%=      5-min Rain = 0
KCO2 141617Z 22009KT 29/19 A2997 RMK A01 T02930194  RH  055%=      5-min Rain = 0
KCO2 141618Z 20009KT 30/20 A2997 RMK A01 T02970195  RH  054%=      5-min Rain = 0
KCO2 141619Z 21008KT 30/20 A2997 RMK A01 T03000195  RH  053%=      5-min Rain = 0
KCO2 141620Z 21016G21KT 30/19 A2997 RMK A01 T03000193  RH  052%=      5-min Rain = 0
KCO2 141621Z 20016KT 30/19 A2997 RMK A01 T02970190  RH  053%=      5-min Rain = 0
KCO2 141622Z 20015KT 30/19 A2997 RMK A01 T02960191  RH  053%=      5-min Rain = 0
KCO2 141623Z 19013KT 30/19 A2997 RMK A01 T02960191  RH  053%=      5-min Rain = 0
KCO2 141624Z 20011KT 30/19 A2997 RMK A01 T02950192  RH  054%=      5-min Rain = 0
KCO2 141625Z 20007KT 30/19 A2997 RMK A01 T02950193  RH  054%=      5-min Rain = 0
KCO2 141626Z 20010KT 30/19 A2997 RMK A01 T02960194  RH  054%=      5-min Rain = 0
KCO2 141627Z 19010KT 30/19 A2997 RMK A01 T02970192  RH  053%=      5-min Rain = 0
KCO2 141628Z 19009KT 30/19 A2997 RMK A01 T02960193  RH  054%=      5-min Rain = 0
KCO2 141629Z 18008KT 30/20 A2997 RMK A01 T02990195  RH  053%=      5-min Rain = 0
KCO2 141630Z 21011KT 30/19 A2997 RMK A01 T03030191  RH  051%=      5-min Rain = 0
KCO2 141631Z 22010KT 31/19 A2997 RMK A01 T03050190  RH  050%=      5-min Rain = 0
KCO2 141632Z 20008KT 31/19 A2997 RMK A01 T03070190  RH  050%=      5-min Rain = 0
KCO2 141633Z 23010KT 31/19 A2997 RMK A01 T03080189  RH  049%=      5-min Rain = 0
KCO2 141634Z 21011KT 31/19 A2997 RMK A01 T03080190  RH  049%=      5-min Rain = 0
KCO2 141635Z 20011KT 31/19 A2997 RMK A01 T03070188  RH  049%=      5-min Rain = 0
KCO2 141636Z 18009KT 31/19 A2997 RMK A01 T03050187  RH  050%=      5-min Rain = 0
KCO2 141637Z 20010KT 31/19 A2997 RMK A01 T03050187  RH  050%=      5-min Rain = 0
KCO2 141638Z 20010KT 31/19 A2997 RMK A01 T03050188  RH  050%=      5-min Rain = 0
KCO2 141639Z 22008KT 31/19 A2997 RMK A01 T03050188  RH  050%=      5-min Rain = 0
KCO2 141640Z 18013KT 31/19 A2997 RMK A01 T03070188  RH  049%=      5-min Rain = 0
KCO2 141641Z 19010KT 31/19 A2997 RMK A01 T03080191  RH  049%=      5-min Rain = 0
KCO2 141642Z 19011KT 31/19 A2997 RMK A01 T03110193  RH  050%=      5-min Rain = 0
KCO2 141643Z 19011KT 31/19 A2997 RMK A01 T03120192  RH  049%=      5-min Rain = 0
KCO2 141644Z 19009KT 31/19 A2997 RMK A01 T03080191  RH  050%=      5-min Rain = 0
KCO2 141645Z 19015KT 31/19 A2997 RMK A01 T03060188  RH  050%=      5-min Rain = 0
KCO2 141646Z 20012KT 31/19 A2997 RMK A01 T03060186  RH  049%=      5-min Rain = 0
KCO2 141647Z 20011G18KT 31/19 A2996 RMK A01 T03070187  RH  049%=      5-min Rain = 0
KCO2 141648Z 19015G20KT 31/19 A2996 RMK A01 T03090189  RH  049%=      5-min Rain = 0
KCO2 141649Z 21010G16KT 31/19 A2996 RMK A01 T03130192  RH  049%=      5-min Rain = 0
KCO2 141650Z 18011KT 32/19 A2996 RMK A01 T03180192  RH  047%=      5-min Rain = 0
KCO2 141651Z 21011KT 32/19 A2996 RMK A01 T03200190  RH  046%=      5-min Rain = 0
KCO2 141652Z 19012KT 32/19 A2996 RMK A01 T03180189  RH  046%=      5-min Rain = 0
KCO2 141653Z 19011KT 32/19 A2996 RMK A01 T03150189  RH  047%=      5-min Rain = 0
KCO2 141654Z 20012KT 32/19 A2996 RMK A01 T03150188  RH  047%=      5-min Rain = 0
KCO2 141655Z 21013KT 31/19 A2996 RMK A01 T03140188  RH  047%=      5-min Rain = 0
KCO2 141656Z 20014KT 32/19 A2996 RMK A01 T03160189  RH  047%=      5-min Rain = 0
KCO2 141657Z 20015KT 32/19 A2996 RMK A01 T03180187  RH  046%=      5-min Rain = 0
KCO2 141658Z 19012KT 31/19 A2996 RMK A01 T03140185  RH  046%=      5-min Rain = 0
KCO2 141659Z 18009KT 31/19 A2996 RMK A01 T03110186  RH  048%=      5-min Rain = 0
KCO2 141700Z 19010KT 31/19 A2996 RMK A01 T03100187  RH  048%=      5-min Rain = 0
KCO2 141701Z 19009KT 31/19 A2996 RMK A01 T03130187  RH  047%=      5-min Rain = 0
KCO2 141702Z 17008KT 32/19 A2996 RMK A01 T03180186  RH  046%=      5-min Rain = 0
KCO2 141703Z 18015KT 32/19 A2996 RMK A01 T03220185  RH  044%=      5-min Rain = 0
KCO2 141704Z 18014KT 32/18 A2996 RMK A01 T03220183  RH  044%=      5-min Rain = 0
KCO2 141705Z 18014KT 32/18 A2996 RMK A01 T03210182  RH  044%=      5-min Rain = 0
KCO2 141706Z 18012KT 32/18 A2996 RMK A01 T03190184  RH  045%=      5-min Rain = 0
KCO2 141707Z 19008KT 32/19 A2996 RMK A01 T03180187  RH  046%=      5-min Rain = 0
KCO2 141708Z 20009KT 32/19 A2996 RMK A01 T03190186  RH  045%=      5-min Rain = 0
KCO2 141709Z 20008KT 32/19 A2996 RMK A01 T03210187  RH  045%=      5-min Rain = 0
KCO2 141710Z 19009G14KT 32/19 A2996 RMK A01 T03240187  RH  044%=      5-min Rain = 0
KCO2 141711Z 22014G20KT 32/19 A2996 RMK A01 T03240188  RH  044%=      5-min Rain = 0
KCO2 141712Z 21016G23KT 32/19 A2996 RMK A01 T03190186  RH  045%=      5-min Rain = 0
KCO2 141713Z 21015KT 32/19 A2996 RMK A01 T03150186  RH  046%=      5-min Rain = 0
KCO2 141714Z 20016KT 31/19 A2996 RMK A01 T03130185  RH  047%=      5-min Rain = 0
KCO2 141715Z 20016KT 31/19 A2996 RMK A01 T03100185  RH  047%=      5-min Rain = 0
KCO2 141716Z 20016KT 31/19 A2996 RMK A01 T03110185  RH  047%=      5-min Rain = 0
KCO2 141717Z 20014KT 31/19 A2996 RMK A01 T03130185  RH  047%=      5-min Rain = 0
KCO2 141718Z 20015KT 31/18 A2996 RMK A01 T03140184  RH  046%=      5-min Rain = 0
KCO2 141719Z 21016KT 32/18 A2996 RMK A01 T03170183  RH  045%=      5-min Rain = 0
KCO2 141720Z 21015KT 32/18 A2996 RMK A01 T03180182  RH  045%=      5-min Rain = 0
KCO2 141721Z 22014KT 32/18 A2996 RMK A01 T03160182  RH  045%=      5-min Rain = 0
KCO2 141722Z 22012KT 31/18 A2996 RMK A01 T03140180  RH  045%=      5-min Rain = 0
KCO2 141723Z 22015KT 31/18 A2996 RMK A01 T03120180  RH  045%=      5-min Rain = 0
KCO2 141724Z 22011KT 31/18 A2996 RMK A01 T03120178  RH  045%=      5-min Rain = 0
KCO2 141725Z 20011KT 31/18 A2996 RMK A01 T03140179  RH  045%=      5-min Rain = 0
KCO2 141726Z 18011KT 32/18 A2996 RMK A01 T03160179  RH  044%=      5-min Rain = 0
KCO2 141727Z 20013KT 32/18 A2996 RMK A01 T03190178  RH  043%=      5-min Rain = 0
KCO2 141728Z 20012KT 32/17 A2996 RMK A01 T03200174  RH  042%=      5-min Rain = 0
KCO2 141729Z 20009KT 32/17 A2996 RMK A01 T03180170  RH  041%=      5-min Rain = 0
KCO2 141730Z 22010G15KT 32/18 A2996 RMK A01 T03180176  RH  043%=      5-min Rain = 0
KCO2 141731Z 21011KT 32/18 A2996 RMK A01 T03220179  RH  043%=      5-min Rain = 0
KCO2 141732Z 21010KT 32/18 A2996 RMK A01 T03230178  RH  042%=      5-min Rain = 0
KCO2 141733Z 21009KT 32/18 A2996 RMK A01 T03220178  RH  042%=      5-min Rain = 0
KCO2 141734Z 19009G14KT 32/18 A2996 RMK A01 T03210179  RH  043%=      5-min Rain = 0
KCO2 141735Z 18013KT 32/18 A2996 RMK A01 T03200181  RH  044%=      5-min Rain = 0
KCO2 141736Z 19011KT 32/18 A2996 RMK A01 T03220182  RH  043%=      5-min Rain = 0
KCO2 141737Z 19011G17KT 32/18 A2996 RMK A01 T03240184  RH  043%=      5-min Rain = 0
KCO2 141738Z 21010KT 33/18 A2996 RMK A01 T03260183  RH  043%=      5-min Rain = 0
KCO2 141739Z 20009KT 32/18 A2995 RMK A01 T03240183  RH  043%=      5-min Rain = 0
KCO2 141740Z 19012KT 32/18 A2995 RMK A01 T03230182  RH  043%=      5-min Rain = 0
KCO2 141741Z 18011KT 33/18 A2995 RMK A01 T03250181  RH  043%=      5-min Rain = 0
KCO2 141742Z 20010G17KT 33/18 A2995 RMK A01 T03250182  RH  043%=      5-min Rain = 0
KCO2 141743Z 22013KT 32/18 A2995 RMK A01 T03220180  RH  043%=      5-min Rain = 0
KCO2 141744Z 22013KT 32/18 A2995 RMK A01 T03230180  RH  043%=      5-min Rain = 0
KCO2 141745Z 21011KT 32/18 A2995 RMK A01 T03220179  RH  042%=      5-min Rain = 0
KCO2 141746Z 20013KT 32/18 A2995 RMK A01 T03230182  RH  043%=      5-min Rain = 0
KCO2 141747Z 21008G13KT 33/18 A2995 RMK A01 T03260183  RH  043%=      5-min Rain = 0
KCO2 141748Z 21010KT 33/18 A2995 RMK A01 T03250184  RH  043%=      5-min Rain = 0
KCO2 141749Z 19012KT 33/18 A2995 RMK A01 T03250182  RH  043%=      5-min Rain = 0
KCO2 141750Z 20013KT 32/18 A2995 RMK A01 T03230182  RH  043%=      5-min Rain = 0
KCO2 141751Z 20013KT 32/18 A2995 RMK A01 T03220183  RH  044%=      5-min Rain = 0
KCO2 141752Z 18012KT 33/19 A2995 RMK A01 T03250185  RH  043%=      5-min Rain = 0
KCO2 141753Z 19014KT 33/18 A2995 RMK A01 T03270183  RH  042%=      5-min Rain = 0
KCO2 141754Z 21011KT 32/18 A2995 RMK A01 T03230183  RH  044%=      5-min Rain = 0
KCO2 141755Z 20012KT 32/18 A2995 RMK A01 T03220184  RH  044%=      5-min Rain = 0
KCO2 141756Z 19009KT 33/19 A2995 RMK A01 T03260186  RH  043%=      5-min Rain = 0
KCO2 141757Z 18010KT 33/19 A2995 RMK A01 T03290187  RH  043%=      5-min Rain = 0
KCO2 141758Z 19013KT 33/19 A2995 RMK A01 T03340186  RH  042%=      5-min Rain = 0
KCO2 141759Z 19014KT 33/18 A2995 RMK A01 T03310183  RH  042%=      5-min Rain = 0
KCO2 141800Z 20013KT 33/18 A2995 RMK A01 T03280183  RH  042%=      5-min Rain = 0
KCO2 141801Z 22010KT 33/18 A2995 RMK A01 T03260182  RH  042%=      5-min Rain = 0
KCO2 141802Z 21012KT 33/18 A2995 RMK A01 T03270181  RH  042%=      5-min Rain = 0
KCO2 141803Z 22010KT 33/18 A2995 RMK A01 T03270182  RH  042%=      5-min Rain = 0
KCO2 141804Z 22013KT 33/18 A2995 RMK A01 T03270180  RH  042%=      5-min Rain = 0
KCO2 141805Z 23012KT 33/18 A2995 RMK A01 T03250179  RH  042%=      5-min Rain = 0
KCO2 141806Z 23011KT 32/18 A2995 RMK A01 T03240180  RH  042%=      5-min Rain = 0
KCO2 141807Z 23007KT 32/18 A2995 RMK A01 T03230180  RH  043%=      5-min Rain = 0
KCO2 141808Z 22007KT 32/18 A2995 RMK A01 T03210179  RH  043%=      5-min Rain = 0
KCO2 141809Z 21011G16KT 32/18 A2995 RMK A01 T03220181  RH  043%=      5-min Rain = 0
KCO2 141810Z 21010G15KT 33/18 A2995 RMK A01 T03250180  RH  042%=      5-min Rain = 0
KCO2 141811Z 20011KT 33/18 A2995 RMK A01 T03270183  RH  042%=      5-min Rain = 0
KCO2 141812Z 19012KT 33/18 A2995 RMK A01 T03260184  RH  043%=      5-min Rain = 0
KCO2 141813Z 20010G15KT 33/18 A2995 RMK A01 T03270182  RH  042%=      5-min Rain = 0
KCO2 141814Z 21011KT 32/18 A2995 RMK A01 T03240182  RH  043%=      5-min Rain = 0
KCO2 141815Z 20014KT 32/18 A2995 RMK A01 T03220181  RH  043%=      5-min Rain = 0
KCO2 141816Z 21012KT 32/18 A2995 RMK A01 T03200180  RH  043%=      5-min Rain = 0
KCO2 141817Z 21013KT 32/18 A2995 RMK A01 T03180179  RH  044%=      5-min Rain = 0
KCO2 141818Z 20010G15KT 32/18 A2995 RMK A01 T03160179  RH  044%=      5-min Rain = 0
KCO2 141819Z 19009KT 32/18 A2995 RMK A01 T03210183  RH  044%=      5-min Rain = 0
KCO2 141820Z 18010KT 33/18 A2995 RMK A01 T03270182  RH  042%=      5-min Rain = 0
KCO2 141821Z 18010KT 33/18 A2995 RMK A01 T03270180  RH  042%=      5-min Rain = 0
KCO2 141822Z 19010KT 32/18 A2995 RMK A01 T03240180  RH  042%=      5-min Rain = 0
KCO2 141823Z 20009KT 32/18 A2995 RMK A01 T03230179  RH  042%=      5-min Rain = 0
KCO2 141824Z 22009KT 33/18 A2995 RMK A01 T03260181  RH  042%=      5-min Rain = 0
KCO2 141825Z 19009KT 33/18 A2995 RMK A01 T03290180  RH  041%=      5-min Rain = 0
KCO2 141826Z 22010KT 33/18 A2995 RMK A01 T03290178  RH  041%=      5-min Rain = 0
KCO2 141827Z 21009KT 33/18 A2995 RMK A01 T03300177  RH  040%=      5-min Rain = 0
KCO2 141828Z 21007KT 33/18 A2995 RMK A01 T03270176  RH  041%=      5-min Rain = 0
KCO2 141829Z 22006KT 32/18 A2995 RMK A01 T03240177  RH  041%=      5-min Rain = 0
KCO2 141830Z 23005KT 32/18 A2995 RMK A01 T03210177  RH  042%=      5-min Rain = 0
KCO2 141831Z 21008KT 32/18 A2995 RMK A01 T03200177  RH  042%=      5-min Rain = 0
KCO2 141832Z 23009KT 32/18 A2995 RMK A01 T03210177  RH  042%=      5-min Rain = 0
KCO2 141833Z 22009KT 32/18 A2995 RMK A01 T03220177  RH  042%=      5-min Rain = 0
KCO2 141834Z 23009KT 32/18 A2995 RMK A01 T03210178  RH  042%=      5-min Rain = 0
KCO2 141835Z 21011G16KT 32/18 A2994 RMK A01 T03200177  RH  043%=      5-min Rain = 0
KCO2 141836Z 22010G16KT 32/18 A2994 RMK A01 T03200177  RH  043%=      5-min Rain = 0
KCO2 141837Z 21011KT 33/18 A2994 RMK A01 T03250179  RH  042%=      5-min Rain = 0
KCO2 141838Z 19010KT 33/18 A2994 RMK A01 T03290177  RH  040%=      5-min Rain = 0
KCO2 141839Z 19010KT 33/18 A2994 RMK A01 T03290175  RH  040%=      5-min Rain = 0
KCO2 141840Z 21007KT 33/17 A2994 RMK A01 T03260174  RH  040%=      5-min Rain = 0
KCO2 141841Z 21007KT 32/17 A2994 RMK A01 T03230174  RH  041%=      5-min Rain = 0
KCO2 141842Z 19006KT 32/17 A2994 RMK A01 T03210174  RH  042%=      5-min Rain = 0
KCO2 141843Z 20005KT 32/18 A2993 RMK A01 T03210176  RH  042%=      5-min Rain = 0
KCO2 141844Z 23003KT 32/18 A2993 RMK A01 T03220177  RH  042%=      5-min Rain = 0
KCO2 141845Z 23007KT 32/18 A2993 RMK A01 T03220176  RH  042%=      5-min Rain = 0
KCO2 141846Z 23011KT 32/18 A2993 RMK A01 T03220177  RH  042%=      5-min Rain = 0
KCO2 141847Z 21009KT 32/18 A2993 RMK A01 T03240176  RH  041%=      5-min Rain = 0
KCO2 141848Z 23008KT 33/18 A2993 RMK A01 T03260177  RH  041%=      5-min Rain = 0
KCO2 141849Z 24010KT 33/18 A2993 RMK A01 T03270176  RH  040%=      5-min Rain = 0
KCO2 141850Z 22010KT 33/18 A2993 RMK A01 T03260175  RH  041%=      5-min Rain = 0
KCO2 141851Z 22010KT 33/17 A2993 RMK A01 T03270174  RH  040%=      5-min Rain = 0
KCO2 141852Z 22009KT 33/18 A2993 RMK A01 T03290175  RH  040%=      5-min Rain = 0
KCO2 141853Z 21013KT 33/18 A2993 RMK A01 T03340176  RH  039%=      5-min Rain = 0
KCO2 141854Z 21012KT 34/17 A2992 RMK A01 T03370172  RH  038%=      5-min Rain = 0
KCO2 141855Z 19017KT 34/17 A2992 RMK A01 T03350171  RH  038%=      5-min Rain = 0
KCO2 141856Z 21014KT 34/17 A2992 RMK A01 T03360171  RH  037%=      5-min Rain = 0
KCO2 141857Z 21011KT 34/17 A2993 RMK A01 T03390171  RH  037%=      5-min Rain = 0
KCO2 141858Z 20010KT 34/17 A2993 RMK A01 T03400170  RH  037%=      5-min Rain = 0
KCO2 141859Z 20011KT 34/17 A2993 RMK A01 T03390170  RH  037%=      5-min Rain = 0
KCO2 141900Z 21008KT 34/17 A2992 RMK A01 T03380169  RH  037%=      5-min Rain = 0
KCO2 141901Z 22011KT 34/17 A2992 RMK A01 T03360169  RH  037%=      5-min Rain = 0
KCO2 141902Z 23010KT 34/17 A2992 RMK A01 T03370169  RH  037%=      5-min Rain = 0
KCO2 141903Z 22011KT 34/17 A2993 RMK A01 T03380169  RH  036%=      5-min Rain = 0
KCO2 141904Z 21007KT 34/17 A2993 RMK A01 T03370166  RH  036%=      5-min Rain = 0
KCO2 141905Z 19003KT 33/17 A2992 RMK A01 T03320165  RH  037%=      5-min Rain = 0
KCO2 141906Z 20006KT 33/17 A2992 RMK A01 T03290166  RH  038%=      5-min Rain = 0
KCO2 141907Z 20011KT 33/17 A2993 RMK A01 T03300168  RH  038%=      5-min Rain = 0
KCO2 141908Z 19008KT 33/17 A2993 RMK A01 T03340167  RH  037%=      5-min Rain = 0
KCO2 141909Z 21009G14KT 34/17 A2993 RMK A01 T03360169  RH  037%=      5-min Rain = 0
KCO2 141910Z 23009KT 34/17 A2993 RMK A01 T03400168  RH  036%=      5-min Rain = 0
KCO2 141911Z 21007KT 34/17 A2993 RMK A01 T03400167  RH  036%=      5-min Rain = 0
KCO2 141912Z 18011KT 34/17 A2993 RMK A01 T03420167  RH  035%=      5-min Rain = 0
KCO2 141913Z 17010KT 34/17 A2993 RMK A01 T03410165  RH  035%=      5-min Rain = 0
KCO2 141914Z 18010G15KT 34/17 A2993 RMK A01 T03370166  RH  036%=      5-min Rain = 0
KCO2 141915Z 18011KT 34/17 A2993 RMK A01 T03350165  RH  036%=      5-min Rain = 0
KCO2 141916Z 17009KT 33/17 A2993 RMK A01 T03330165  RH  037%=      5-min Rain = 0
KCO2 141917Z 18009KT 33/17 A2993 RMK A01 T03330165  RH  037%=      5-min Rain = 0
KCO2 141918Z 20013KT 33/17 A2993 RMK A01 T03330167  RH  037%=      5-min Rain = 0
KCO2 141919Z 19010KT 34/17 A2993 RMK A01 T03370167  RH  036%=      5-min Rain = 0
KCO2 141920Z 18008KT 34/17 A2993 RMK A01 T03360167  RH  037%=      5-min Rain = 0
KCO2 141921Z 18007KT 34/17 A2993 RMK A01 T03360165  RH  036%=      5-min Rain = 0
KCO2 141922Z 20004KT 33/17 A2993 RMK A01 T03340166  RH  037%=      5-min Rain = 0
KCO2 141923Z 16004KT 34/17 A2992 RMK A01 T03350165  RH  036%=      5-min Rain = 0
KCO2 141924Z 14004KT 34/17 A2992 RMK A01 T03370165  RH  036%=      5-min Rain = 0
KCO2 141925Z 13004G12KT 34/17 A2992 RMK A01 T03360166  RH  036%=      5-min Rain = 0
KCO2 141926Z 13010KT 33/17 A2992 RMK A01 T03340167  RH  037%=      5-min Rain = 0
KCO2 141927Z 15011KT 34/17 A2992 RMK A01 T03350166  RH  037%=      5-min Rain = 0
KCO2 141928Z 14011KT 34/17 A2992 RMK A01 T03370165  RH  036%=      5-min Rain = 0
KCO2 141929Z 14010KT 34/17 A2992 RMK A01 T03360165  RH  036%=      5-min Rain = 0
KCO2 141930Z 14008KT 33/16 A2992 RMK A01 T03320163  RH  036%=      5-min Rain = 0
KCO2 141931Z 13006KT 33/17 A2992 RMK A01 T03310166  RH  037%=      5-min Rain = 0
KCO2 141932Z 13007KT 34/17 A2992 RMK A01 T03350166  RH  037%=      5-min Rain = 0
KCO2 141933Z 14008KT 34/16 A2992 RMK A01 T03370164  RH  036%=      5-min Rain = 0
KCO2 141934Z 16009KT 34/16 A2992 RMK A01 T03370164  RH  036%=      5-min Rain = 0
KCO2 141935Z 17006KT 34/17 A2992 RMK A01 T03360165  RH  036%=      5-min Rain = 0
KCO2 141936Z 14006KT 34/17 A2992 RMK A01 T03360167  RH  036%=      5-min Rain = 0
KCO2 141937Z 15008KT 34/17 A2992 RMK A01 T03400167  RH  036%=      5-min Rain = 0
KCO2 141938Z 15009KT 34/17 A2992 RMK A01 T03430168  RH  035%=      5-min Rain = 0
KCO2 141939Z 14012KT 35/17 A2992 RMK A01 T03470166  RH  034%=      5-min Rain = 0
KCO2 141940Z 13008KT 34/16 A2992 RMK A01 T03440164  RH  034%=      5-min Rain = 0
KCO2 141941Z 12009KT 34/17 A2991 RMK A01 T03400166  RH  035%=      5-min Rain = 0
KCO2 141942Z 12009KT 34/17 A2991 RMK A01 T03400165  RH  035%=      5-min Rain = 0
KCO2 141943Z 15012KT 34/16 A2991 RMK A01 T03400162  RH  035%=      5-min Rain = 0
KCO2 141944Z 15011KT 34/15 A2991 RMK A01 T03410154  RH  033%=      5-min Rain = 0
KCO2 141945Z 18008KT 34/16 A2991 RMK A01 T03410158  RH  033%=      5-min Rain = 0
KCO2 141946Z 20011KT 35/16 A2991 RMK A01 T03460157  RH  033%=      5-min Rain = 0
KCO2 141947Z 20007KT 35/15 A2991 RMK A01 T03450154  RH  032%=      5-min Rain = 0
KCO2 141948Z 18008KT 34/16 A2991 RMK A01 T03420155  RH  033%=      5-min Rain = 0
KCO2 141949Z 20005G10KT 34/16 A2991 RMK A01 T03430157  RH  033%=      5-min Rain = 0
KCO2 141950Z 12002KT 34/16 A2991 RMK A01 T03420158  RH  033%=      5-min Rain = 0
KCO2 141951Z 11004KT 34/16 A2991 RMK A01 T03420155  RH  033%=      5-min Rain = 0
KCO2 141952Z 09003KT 34/16 A2991 RMK A01 T03420160  RH  034%=      5-min Rain = 0
KCO2 141953Z 19003KT 34/16 A2991 RMK A01 T03430159  RH  033%=      5-min Rain = 0
KCO2 141954Z 16004KT 34/16 A299 RMK A01 T03430157  RH  033%=      5-min Rain = 0
KCO2 141955Z 16009KT 34/16 A299 RMK A01 T03440160  RH  033%=      5-min Rain = 0
KCO2 141956Z 15011KT 35/16 A299 RMK A01 T03470157  RH  032%=      5-min Rain = 0
KCO2 141957Z 16010KT 35/16 A299 RMK A01 T03480155  RH  032%=      5-min Rain = 0
KCO2 141958Z 16011KT 35/16 A299 RMK A01 T03470156  RH  032%=      5-min Rain = 0
KCO2 141959Z 17010KT 35/16 A299 RMK A01 T03500155  RH  031%=      5-min Rain = 0
KCO2 142000Z 17008KT 35/15 A299 RMK A01 T03520154  RH  031%=      5-min Rain = 0
KCO2 142001Z 18005KT 35/15 A299 RMK A01 T03480154  RH  031%=      5-min Rain = 0
KCO2 142002Z 25003KT 34/15 A299 RMK A01 T03440154  RH  032%=      5-min Rain = 0
KCO2 142003Z 31002KT 34/15 A299 RMK A01 T03410151  RH  032%=      5-min Rain = 0
KCO2 142004Z 23003KT 34/15 A299 RMK A01 T03390154  RH  033%=      5-min Rain = 0
KCO2 142005Z 24003KT 34/16 A2989 RMK A01 T03410156  RH  033%=      5-min Rain = 0
KCO2 142006Z 20001KT 34/16 A2989 RMK A01 T03420155  RH  033%=      5-min Rain = 0
KCO2 142007Z 07003KT 34/16 A2989 RMK A01 T03430158  RH  033%=      5-min Rain = 0
KCO2 142008Z 25004KT 34/16 A2989 RMK A01 T03440155  RH  032%=      5-min Rain = 0
KCO2 142009Z 19009G14KT 34/16 A2989 RMK A01 T03430155  RH  032%=      5-min Rain = 0
KCO2 142010Z 18012KT 35/15 A2989 RMK A01 T03460154  RH  032%=      5-min Rain = 0
KCO2 142011Z 20012KT 35/15 A2989 RMK A01 T03500152  RH  031%=      5-min Rain = 0
KCO2 142012Z 18010KT 35/15 A2989 RMK A01 T03520152  RH  030%=      5-min Rain = 0
KCO2 142013Z 19011KT 35/15 A2988 RMK A01 T03520150  RH  030%=      5-min Rain = 0
KCO2 142014Z 19008KT 35/15 A2988 RMK A01 T03520151  RH  030%=      5-min Rain = 0
KCO2 142015Z 18007KT 35/15 A2988 RMK A01 T03490150  RH  030%=      5-min Rain = 0
KCO2 142016Z 15005KT 35/15 A2988 RMK A01 T03470151  RH  031%=      5-min Rain = 0
KCO2 142017Z 16003KT 35/15 A2988 RMK A01 T03460150  RH  031%=      5-min Rain = 0
KCO2 142018Z 18003KT 35/15 A2987 RMK A01 T03450154  RH  032%=      5-min Rain = 0
KCO2 142019Z 15006KT 35/15 A2987 RMK A01 T03480152  RH  031%=      5-min Rain = 0
KCO2 142020Z 12004KT 35/15 A2987 RMK A01 T03490149  RH  030%=      5-min Rain = 0
KCO2 142021Z 14007KT 34/15 A2987 RMK A01 T03440148  RH  031%=      5-min Rain = 0
KCO2 142022Z 15009KT 34/15 A2987 RMK A01 T03400147  RH  031%=      5-min Rain = 0
KCO2 142023Z 18008KT 34/15 A2987 RMK A01 T03360147  RH  032%=      5-min Rain = 0
KCO2 142024Z 18007KT 34/15 A2987 RMK A01 T03350148  RH  032%=      5-min Rain = 0
KCO2 142025Z 18010KT 34/15 A2987 RMK A01 T03360148  RH  032%=      5-min Rain = 0
KCO2 142026Z 17011KT 34/15 A2987 RMK A01 T03360148  RH  032%=      5-min Rain = 0
KCO2 142027Z 18009KT 34/15 A2987 RMK A01 T03350147  RH  032%=      5-min Rain = 0
KCO2 142028Z 16007G12KT 34/15 A2987 RMK A01 T03350147  RH  032%=      5-min Rain = 0
KCO2 142029Z 14007KT 33/15 A2987 RMK A01 T03340148  RH  033%=      5-min Rain = 0
KCO2 142030Z 14007KT 33/15 A2987 RMK A01 T03340147  RH  032%=      5-min Rain = 0
KCO2 142031Z 13004KT 33/15 A2987 RMK A01 T03330146  RH  032%=      5-min Rain = 0
KCO2 142032Z 13005KT 33/15 A2987 RMK A01 T03320148  RH  033%=      5-min Rain = 0
KCO2 142033Z 13004KT 33/15 A2987 RMK A01 T03320147  RH  033%=      5-min Rain = 0
KCO2 142034Z 17003KT 33/15 A2987 RMK A01 T03330147  RH  033%=      5-min Rain = 0
KCO2 142035Z 17002KT 33/15 A2987 RMK A01 T03330146  RH  032%=      5-min Rain = 0
KCO2 142036Z 15005KT 33/15 A2987 RMK A01 T03330149  RH  033%=      5-min Rain = 0
KCO2 142037Z 18008KT 33/16 A2986 RMK A01 T03320156  RH  035%=      5-min Rain = 0
KCO2 142038Z 19007KT 33/17 A2986 RMK A01 T03290168  RH  038%=      5-min Rain = 0
KCO2 142039Z 20009KT 32/17 A2986 RMK A01 T03240171  RH  040%=      5-min Rain = 0
KCO2 142040Z 21012KT 32/18 A2986 RMK A01 T03160182  RH  045%=      5-min Rain = 0
KCO2 142041Z 22009KT 31/17 A2986 RMK A01 T03060168  RH  044%=      5-min Rain = 0
KCO2 142042Z 23005KT 30/16 A2986 RMK A01 T03010156  RH  041%=      5-min Rain = 0
KCO2 142043Z 20003KT 30/17 A2986 RMK A01 T02990174  RH  047%=      5-min Rain = 0
KCO2 142044Z 15002KT 30/18 A2986 RMK A01 T02950182  RH  050%=      5-min Rain = 0
KCO2 142045Z 11005KT 29/17 A2986 RMK A01 T02930172  RH  048%=      5-min Rain = 0
KCO2 142046Z 12006KT 29/18 A2986 RMK A01 T02930177  RH  050%=      5-min Rain = 0.01
KCO2 142047Z 10008KT 29/18 A2986 RMK A01 T02920182  RH  051%=      5-min Rain = 0
KCO2 142048Z 09012KT 29/18 A2986 RMK A01 T02910180  RH  051%=      5-min Rain = 0
KCO2 142049Z 09011KT 29/19 A2986 RMK A01 T02900186  RH  053%=      5-min Rain = 0.01
KCO2 142050Z 10010KT 29/19 A2986 RMK A01 T02850192  RH  057%=      5-min Rain = 0.02
KCO2 142051Z 10008KT 28/17 A2986 RMK A01 T02800174  RH  053%=      5-min Rain = 0.03
KCO2 142052Z 12010KT 27/19 A2986 RMK A01 T02740186  RH  059%=      5-min Rain = 0.01
KCO2 142053Z 11015KT 27/19 A2987 RMK A01 T02660185  RH  061%=      5-min Rain = 0.01
KCO2 142054Z 11013KT 26/18 A2987 RMK A01 T02600183  RH  062%=      5-min Rain = 0.01
KCO2 142055Z 11013KT 26/18 A2988 RMK A01 T02550184  RH  065%=      5-min Rain = 0
KCO2 142056Z 12016KT 25/18 A2988 RMK A01 T02510184  RH  066%=      5-min Rain = 0
KCO2 142057Z 12017KT 25/19 A2989 RMK A01 T02470188  RH  070%=      5-min Rain = 0.01
KCO2 142058Z 12015KT 24/19 A2989 RMK A01 T02400188  RH  073%=      5-min Rain = 0
KCO2 142059Z 11021KT 24/18 A2988 RMK A01 T02370183  RH  072%=      5-min Rain = 0
KCO2 142100Z 11018G23KT 24/18 A2988 RMK A01 T02370176  RH  069%=      5-min Rain = 0
KCO2 142101Z 11016KT 24/18 A2988 RMK A01 T02390179  RH  069%=      5-min Rain = 0
KCO2 142102Z 09015KT 24/18 A2988 RMK A01 T02380179  RH  069%=      5-min Rain = 0
KCO2 142103Z 10014KT 24/18 A2988 RMK A01 T02410180  RH  069%=      5-min Rain = 0
KCO2 142104Z 11014KT 24/18 A2988 RMK A01 T02420181  RH  068%=      5-min Rain = 0
KCO2 142105Z 11014KT 24/18 A2988 RMK A01 T02420178  RH  068%=      5-min Rain = 0
KCO2 142106Z 11013KT 24/18 A2988 RMK A01 T02410175  RH  066%=      5-min Rain = 0
KCO2 142107Z 11013KT 24/17 A2988 RMK A01 T02410170  RH  064%=      5-min Rain = 0
KCO2 142108Z 12013KT 24/17 A2988 RMK A01 T02430171  RH  064%=      5-min Rain = 0
KCO2 142109Z 12016KT 24/17 A2988 RMK A01 T02440173  RH  065%=      5-min Rain = 0
KCO2 142110Z 11016KT 24/17 A2988 RMK A01 T02440172  RH  064%=      5-min Rain = 0
KCO2 142111Z 11016KT 24/17 A2988 RMK A01 T02430173  RH  065%=      5-min Rain = 0
KCO2 142112Z 10015KT 24/17 A2988 RMK A01 T02430168  RH  063%=      5-min Rain = 0
KCO2 142113Z 09015KT 25/17 A2987 RMK A01 T02460172  RH  063%=      5-min Rain = 0
KCO2 142114Z 09016KT 25/18 A2987 RMK A01 T02480181  RH  066%=      5-min Rain = 0
KCO2 142115Z 10015KT 25/19 A2987 RMK A01 T02480188  RH  069%=      5-min Rain = 0
KCO2 142116Z 11013KT 25/19 A2988 RMK A01 T02490190  RH  070%=      5-min Rain = 0
KCO2 142117Z 12012KT 25/19 A2988 RMK A01 T02510191  RH  069%=      5-min Rain = 0
KCO2 142118Z 11013KT 25/19 A2988 RMK A01 T02530193  RH  069%=      5-min Rain = 0
KCO2 142119Z 10015KT 25/19 A2987 RMK A01 T02540187  RH  066%=      5-min Rain = 0
KCO2 142120Z 09013KT 26/18 A2987 RMK A01 T02550182  RH  064%=      5-min Rain = 0
KCO2 142121Z 10013KT 26/19 A2987 RMK A01 T02550185  RH  065%=      5-min Rain = 0
KCO2 142122Z 10013KT 25/18 A2987 RMK A01 T02540182  RH  064%=      5-min Rain = 0
KCO2 142123Z 11012KT 26/18 A2987 RMK A01 T02560180  RH  063%=      5-min Rain = 0
KCO2 142124Z 11010KT 26/18 A2987 RMK A01 T02600180  RH  061%=      5-min Rain = 0
KCO2 142125Z 12011KT 27/18 A2987 RMK A01 T02650180  RH  060%=      5-min Rain = 0
KCO2 142126Z 11012KT 27/18 A2987 RMK A01 T02700177  RH  057%=      5-min Rain = 0
KCO2 142127Z 12010KT 27/18 A2987 RMK A01 T02740177  RH  056%=      5-min Rain = 0
KCO2 142128Z 12010KT 28/18 A2987 RMK A01 T02760181  RH  056%=      5-min Rain = 0
KCO2 142129Z 13010KT 28/18 A2987 RMK A01 T02790176  RH  054%=      5-min Rain = 0
KCO2 142130Z 14009KT 28/18 A2987 RMK A01 T02820175  RH  052%=      5-min Rain = 0
KCO2 142131Z 13010KT 28/17 A2987 RMK A01 T02840172  RH  051%=      5-min Rain = 0
KCO2 142132Z 13011KT 29/17 A2987 RMK A01 T02860172  RH  050%=      5-min Rain = 0
KCO2 142133Z 13011KT 29/17 A2987 RMK A01 T02860174  RH  051%=      5-min Rain = 0
KCO2 142134Z 14009KT 29/18 A2987 RMK A01 T02860179  RH  052%=      5-min Rain = 0
KCO2 142135Z 13007KT 29/18 A2987 RMK A01 T02860182  RH  053%=      5-min Rain = 0
KCO2 142136Z 13009KT 29/18 A2987 RMK A01 T02850184  RH  054%=      5-min Rain = 0
KCO2 142137Z 12010KT 28/18 A2986 RMK A01 T02830184  RH  055%=      5-min Rain = 0
KCO2 142138Z 11010KT 28/18 A2986 RMK A01 T02810182  RH  055%=      5-min Rain = 0
KCO2 142139Z 12008KT 28/18 A2986 RMK A01 T02800183  RH  055%=      5-min Rain = 0
KCO2 142140Z 14010KT 28/19 A2986 RMK A01 T02800188  RH  057%=      5-min Rain = 0
KCO2 142141Z 14010KT 28/19 A2987 RMK A01 T02820185  RH  056%=      5-min Rain = 0
KCO2 142142Z 13009KT 28/19 A2987 RMK A01 T02830186  RH  056%=      5-min Rain = 0
KCO2 142143Z 14010KT 28/19 A2987 RMK A01 T02830187  RH  056%=      5-min Rain = 0
KCO2 142144Z 15012G17KT 29/19 A2987 RMK A01 T02850186  RH  055%=      5-min Rain = 0
KCO2 142145Z 14016KT 28/18 A2987 RMK A01 T02830178  RH  053%=      5-min Rain = 0
KCO2 142146Z 14015KT 28/18 A2987 RMK A01 T02800177  RH  054%=      5-min Rain = 0
KCO2 142147Z 13013KT 28/18 A2987 RMK A01 T02780175  RH  054%=      5-min Rain = 0
KCO2 142148Z 11011KT 28/18 A2987 RMK A01 T02790178  RH  054%=      5-min Rain = 0
KCO2 142149Z 11012KT 28/18 A2987 RMK A01 T02800175  RH  053%=      5-min Rain = 0
KCO2 142150Z 11010KT 28/17 A2986 RMK A01 T02800173  RH  052%=      5-min Rain = 0
KCO2 142151Z 11010KT 28/18 A2986 RMK A01 T02810179  RH  054%=      5-min Rain = 0
KCO2 142152Z 11011KT 28/17 A2986 RMK A01 T02830173  RH  051%=      5-min Rain = 0
KCO2 142153Z 11013KT 29/17 A2986 RMK A01 T02850172  RH  050%=      5-min Rain = 0
KCO2 142154Z 11012KT 29/17 A2986 RMK A01 T02870168  RH  048%=      5-min Rain = 0
KCO2 142155Z 12013KT 29/17 A2987 RMK A01 T02880166  RH  048%=      5-min Rain = 0
KCO2 142156Z 12011G16KT 29/17 A2987 RMK A01 T02900171  RH  049%=      5-min Rain = 0
KCO2 142157Z 13013G18KT 29/17 A2987 RMK A01 T02920171  RH  048%=      5-min Rain = 0
KCO2 142158Z 12017G22KT 29/17 A2987 RMK A01 T02910166  RH  047%=      5-min Rain = 0
KCO2 142159Z 12017KT 29/16 A2986 RMK A01 T02890158  RH  045%=      5-min Rain = 0
KCO2 142200Z 13018KT 29/16 A2987 RMK A01 T02880157  RH  045%=      5-min Rain = 0
KCO2 142201Z 13019KT 29/16 A2986 RMK A01 T02860158  RH  046%=      5-min Rain = 0
KCO2 142202Z 12017KT 28/16 A2986 RMK A01 T02830159  RH  047%=      5-min Rain = 0
KCO2 142203Z 12018KT 28/16 A2986 RMK A01 T02820158  RH  047%=      5-min Rain = 0
KCO2 142204Z 12018KT 28/15 A2987 RMK A01 T02810149  RH  044%=      5-min Rain = 0
KCO2 142205Z 12018G24KT 28/15 A2987 RMK A01 T02790152  RH  046%=      5-min Rain = 0
KCO2 142206Z 13024G29KT 28/16 A2987 RMK A01 T02780156  RH  047%=      5-min Rain = 0
KCO2 142207Z 13023G29KT 27/16 A2987 RMK A01 T02720160  RH  050%=      5-min Rain = 0
KCO2 142208Z 14021KT 27/16 A2987 RMK A01 T02680161  RH  052%=      5-min Rain = 0
KCO2 142209Z 14021KT 27/16 A2988 RMK A01 T02650160  RH  052%=      5-min Rain = 0
KCO2 142210Z 14018KT 26/16 A2988 RMK A01 T02630163  RH  054%=      5-min Rain = 0
KCO2 142211Z 15020KT 26/16 A2988 RMK A01 T02620162  RH  054%=      5-min Rain = 0
KCO2 142212Z 15019G25KT 26/16 A2988 RMK A01 T02610160  RH  054%=      5-min Rain = 0
KCO2 142213Z 15025G32KT 26/16 A2988 RMK A01 T02610158  RH  053%=      5-min Rain = 0
KCO2 142214Z 15024KT 26/15 A2988 RMK A01 T02610152  RH  051%=      5-min Rain = 0
KCO2 142215Z 15023KT 26/15 A2988 RMK A01 T02600153  RH  052%=      5-min Rain = 0
KCO2 142216Z 15020G29KT 26/16 A2988 RMK A01 T02600155  RH  052%=      5-min Rain = 0
KCO2 142217Z 14024G30KT 26/15 A2988 RMK A01 T02610154  RH  052%=      5-min Rain = 0
KCO2 142218Z 14025G31KT 26/15 A2988 RMK A01 T02600153  RH  052%=      5-min Rain = 0
KCO2 142219Z 14018KT 26/16 A2988 RMK A01 T02580158  RH  054%=      5-min Rain = 0
KCO2 142220Z 14024G29KT 26/16 A2988 RMK A01 T02580159  RH  054%=      5-min Rain = 0
KCO2 142221Z 14025KT 26/16 A2988 RMK A01 T02570156  RH  054%=      5-min Rain = 0
KCO2 142222Z 14022KT 25/16 A2988 RMK A01 T02540159  RH  056%=      5-min Rain = 0
KCO2 142223Z 13023KT 25/16 A2988 RMK A01 T02520161  RH  057%=      5-min Rain = 0
KCO2 142224Z 14015G20KT 25/16 A2988 RMK A01 T02500164  RH  059%=      5-min Rain = 0
KCO2 142225Z 14016KT 25/17 A2988 RMK A01 T02510167  RH  059%=      5-min Rain = 0
KCO2 142226Z 14013KT 25/17 A2988 RMK A01 T02530166  RH  058%=      5-min Rain = 0
KCO2 142227Z 14016G25KT 26/17 A2988 RMK A01 T02550165  RH  058%=      5-min Rain = 0
KCO2 142228Z 14022G27KT 26/16 A2988 RMK A01 T02570163  RH  056%=      5-min Rain = 0
KCO2 142229Z 15019G26KT 26/16 A2988 RMK A01 T02600164  RH  055%=      5-min Rain = 0
KCO2 142230Z 14018G23KT 26/17 A2988 RMK A01 T02610165  RH  056%=      5-min Rain = 0
KCO2 142231Z 14021G26KT 26/16 A2988 RMK A01 T02620162  RH  054%=      5-min Rain = 0
KCO2 142232Z 14022KT 26/16 A2988 RMK A01 T02610156  RH  052%=      5-min Rain = 0
KCO2 142233Z 14022KT 26/15 A2988 RMK A01 T02590153  RH  052%=      5-min Rain = 0
KCO2 142234Z 14022KT 26/15 A2988 RMK A01 T02590153  RH  052%=      5-min Rain = 0
KCO2 142235Z 14021KT 26/15 A2988 RMK A01 T02590152  RH  052%=      5-min Rain = 0
KCO2 142236Z 14016KT 26/16 A2988 RMK A01 T02580155  RH  053%=      5-min Rain = 0
KCO2 142237Z 14017KT 26/16 A2988 RMK A01 T02580155  RH  053%=      5-min Rain = 0
KCO2 142238Z 15017KT 26/15 A2987 RMK A01 T02580153  RH  052%=      5-min Rain = 0
KCO2 142239Z 14016KT 26/15 A2987 RMK A01 T02600152  RH  051%=      5-min Rain = 0
KCO2 142240Z 14015KT 26/15 A2987 RMK A01 T02630151  RH  050%=      5-min Rain = 0
KCO2 142241Z 13013KT 27/16 A2987 RMK A01 T02670155  RH  050%=      5-min Rain = 0
KCO2 142242Z 14016KT 27/15 A2987 RMK A01 T02700151  RH  048%=      5-min Rain = 0
KCO2 142243Z 14014KT 27/15 A2987 RMK A01 T02720149  RH  047%=      5-min Rain = 0
KCO2 142244Z 15014G19KT 27/15 A2987 RMK A01 T02740153  RH  048%=      5-min Rain = 0
KCO2 142245Z 15018KT 28/15 A2987 RMK A01 T02750151  RH  046%=      5-min Rain = 0
KCO2 142246Z 15014KT 27/15 A2987 RMK A01 T02740148  RH  046%=      5-min Rain = 0
KCO2 142247Z 14016KT 27/15 A2986 RMK A01 T02730148  RH  047%=      5-min Rain = 0
KCO2 142248Z 14016KT 27/15 A2986 RMK A01 T02720147  RH  046%=      5-min Rain = 0
KCO2 142249Z 14014KT 27/15 A2986 RMK A01 T02700146  RH  046%=      5-min Rain = 0
KCO2 142250Z 14010G16KT 27/15 A2986 RMK A01 T02710150  RH  048%=      5-min Rain = 0
KCO2 142251Z 14016KT 27/15 A2986 RMK A01 T02720145  RH  046%=      5-min Rain = 0
KCO2 142252Z 13012KT 27/15 A2986 RMK A01 T02730148  RH  046%=      5-min Rain = 0
KCO2 142253Z 13011G16KT 27/15 A2985 RMK A01 T02730149  RH  046%=      5-min Rain = 0
KCO2 142254Z 12010KT 28/15 A2985 RMK A01 T02760151  RH  046%=      5-min Rain = 0
KCO2 142255Z 12015KT 28/15 A2985 RMK A01 T02790149  RH  045%=      5-min Rain = 0
KCO2 142256Z 12014KT 28/15 A2985 RMK A01 T02790146  RH  044%=      5-min Rain = 0
KCO2 142257Z 12012KT 28/15 A2985 RMK A01 T02780147  RH  045%=      5-min Rain = 0
KCO2 142258Z 12012KT 28/15 A2985 RMK A01 T02780149  RH  045%=      5-min Rain = 0
KCO2 142259Z 12011KT 28/15 A2985 RMK A01 T02790147  RH  044%=      5-min Rain = 0
KCO2 142300Z 12011KT 28/15 A2985 RMK A01 T02810150  RH  045%=      5-min Rain = 0
KCO2 142301Z 12012KT 28/15 A2985 RMK A01 T02820148  RH  044%=      5-min Rain = 0
KCO2 142302Z 12012KT 28/15 A2985 RMK A01 T02830151  RH  044%=      5-min Rain = 0
KCO2 142303Z 12011KT 28/15 A2985 RMK A01 T02830150  RH  044%=      5-min Rain = 0
KCO2 142304Z 13013KT 28/15 A2985 RMK A01 T02820150  RH  044%=      5-min Rain = 0
KCO2 142305Z 13011KT 28/15 A2985 RMK A01 T02820150  RH  045%=      5-min Rain = 0
KCO2 142306Z 14010KT 28/15 A2985 RMK A01 T02820151  RH  045%=      5-min Rain = 0
KCO2 142307Z 14013KT 28/15 A2985 RMK A01 T02830152  RH  045%=      5-min Rain = 0
KCO2 142308Z 15010KT 28/15 A2986 RMK A01 T02840154  RH  045%=      5-min Rain = 0
KCO2 142309Z 15011KT 28/16 A2986 RMK A01 T02840156  RH  046%=      5-min Rain = 0
KCO2 142310Z 15014KT 28/15 A2986 RMK A01 T02840153  RH  045%=      5-min Rain = 0
KCO2 142311Z 15014KT 28/15 A2986 RMK A01 T02830154  RH  046%=      5-min Rain = 0
KCO2 142312Z 14012KT 28/16 A2986 RMK A01 T02820155  RH  046%=      5-min Rain = 0
KCO2 142313Z 14012KT 28/15 A2986 RMK A01 T02810154  RH  046%=      5-min Rain = 0
KCO2 142314Z 14011KT 28/16 A2986 RMK A01 T02790155  RH  047%=      5-min Rain = 0
KCO2 142315Z 15011KT 28/15 A2985 RMK A01 T02780154  RH  047%=      5-min Rain = 0
KCO2 142316Z 15010KT 28/15 A2985 RMK A01 T02770154  RH  047%=      5-min Rain = 0
KCO2 142317Z 15011KT 28/16 A2985 RMK A01 T02780159  RH  048%=      5-min Rain = 0
KCO2 142318Z 16011KT 28/16 A2986 RMK A01 T02780160  RH  049%=      5-min Rain = 0
KCO2 142319Z 15012KT 28/17 A2986 RMK A01 T02750165  RH  051%=      5-min Rain = 0
KCO2 142320Z 15015KT 27/16 A2986 RMK A01 T02710163  RH  052%=      5-min Rain = 0
KCO2 142321Z 15013KT 27/16 A2986 RMK A01 T02670164  RH  053%=      5-min Rain = 0
KCO2 142322Z 15015KT 27/16 A2986 RMK A01 T02650163  RH  053%=      5-min Rain = 0
KCO2 142323Z 15014KT 27/16 A2986 RMK A01 T02650161  RH  053%=      5-min Rain = 0
KCO2 142324Z 15014KT 26/16 A2986 RMK A01 T02640161  RH  053%=      5-min Rain = 0
KCO2 142325Z 15012KT 27/16 A2986 RMK A01 T02660156  RH  051%=      5-min Rain = 0
KCO2 142326Z 16012KT 27/16 A2986 RMK A01 T02680157  RH  050%=      5-min Rain = 0
KCO2 142327Z 15011KT 27/16 A2986 RMK A01 T02680156  RH  050%=      5-min Rain = 0
KCO2 142328Z 15012KT 27/15 A2985 RMK A01 T02690152  RH  049%=      5-min Rain = 0
KCO2 142329Z 14010KT 27/15 A2985 RMK A01 T02700150  RH  048%=      5-min Rain = 0
KCO2 142330Z 15010KT 27/15 A2985 RMK A01 T02710152  RH  048%=      5-min Rain = 0
KCO2 142331Z 15010KT 27/15 A2985 RMK A01 T02730146  RH  046%=      5-min Rain = 0
KCO2 142332Z 14008KT 27/15 A2985 RMK A01 T02730148  RH  046%=      5-min Rain = 0
KCO2 142333Z 14009KT 27/14 A2985 RMK A01 T02740144  RH  045%=      5-min Rain = 0
KCO2 142334Z 14008KT 28/15 A2985 RMK A01 T02760147  RH  045%=      5-min Rain = 0
KCO2 142335Z 14009KT 28/15 A2985 RMK A01 T02790145  RH  044%=      5-min Rain = 0
KCO2 142336Z 14012KT 28/14 A2985 RMK A01 T02810141  RH  042%=      5-min Rain = 0
KCO2 142337Z 15013KT 28/14 A2984 RMK A01 T02820136  RH  041%=      5-min Rain = 0
KCO2 142338Z 14012KT 28/14 A2984 RMK A01 T02820139  RH  042%=      5-min Rain = 0
KCO2 142339Z 14011KT 28/14 A2984 RMK A01 T02820137  RH  041%=      5-min Rain = 0
KCO2 142340Z 15013KT 28/14 A2984 RMK A01 T02830139  RH  041%=      5-min Rain = 0
KCO2 142341Z 14015KT 28/14 A2984 RMK A01 T02830138  RH  041%=      5-min Rain = 0
KCO2 142342Z 14012KT 28/14 A2984 RMK A01 T02830138  RH  041%=      5-min Rain = 0
KCO2 142343Z 15013KT 28/14 A2984 RMK A01 T02810140  RH  042%=      5-min Rain = 0
KCO2 142344Z 15014KT 28/14 A2984 RMK A01 T02800138  RH  042%=      5-min Rain = 0
KCO2 142345Z 15012KT 28/14 A2984 RMK A01 T02790140  RH  043%=      5-min Rain = 0
KCO2 142346Z 15012KT 28/14 A2984 RMK A01 T02790144  RH  044%=      5-min Rain = 0
KCO2 142347Z 15014KT 28/15 A2984 RMK A01 T02780146  RH  044%=      5-min Rain = 0
KCO2 142348Z 15013KT 28/15 A2983 RMK A01 T02770150  RH  046%=      5-min Rain = 0
KCO2 142349Z 15011KT 28/15 A2983 RMK A01 T02760154  RH  047%=      5-min Rain = 0
KCO2 142350Z 16011KT 28/16 A2983 RMK A01 T02770157  RH  048%=      5-min Rain = 0
KCO2 142351Z 15014KT 28/16 A2983 RMK A01 T02760159  RH  049%=      5-min Rain = 0
KCO2 142352Z 15011KT 28/16 A2983 RMK A01 T02750160  RH  049%=      5-min Rain = 0
KCO2 142353Z 15011KT 27/16 A2983 RMK A01 T02740161  RH  050%=      5-min Rain = 0
KCO2 142354Z 15008KT 27/16 A2983 RMK A01 T02730164  RH  051%=      5-min Rain = 0
KCO2 142355Z 15008KT 27/16 A2983 RMK A01 T02740164  RH  051%=      5-min Rain = 0
KCO2 142356Z 15011KT 28/16 A2983 RMK A01 T02750163  RH  050%=      5-min Rain = 0
KCO2 142357Z 15011KT 28/16 A2983 RMK A01 T02760163  RH  050%=      5-min Rain = 0
KCO2 142358Z 15010KT 28/16 A2983 RMK A01 T02760162  RH  050%=      5-min Rain = 0
KCO2 142359Z 15010KT 28/16 A2983 RMK A01 T02770163  RH  050%=      5-min Rain = 0
KCO2 150000Z 15009KT 28/17 A2983 RMK A01 T02780166  RH  050%=      5-min Rain = 0
KCO2 150001Z 15009KT 28/17 A2983 RMK A01 T02780167  RH  051%=      5-min Rain = 0
KCO2 150002Z 15010KT 28/17 A2983 RMK A01 T02790166  RH  050%=      5-min Rain = 0
KCO2 150003Z 15011KT 28/17 A2983 RMK A01 T02790166  RH  050%=      5-min Rain = 0
KCO2 150004Z 15013KT 28/17 A2983 RMK A01 T02790166  RH  050%=      5-min Rain = 0
KCO2 150005Z 15013KT 28/17 A2984 RMK A01 T02790167  RH  050%=      5-min Rain = 0
KCO2 150006Z 16013KT 28/17 A2984 RMK A01 T02790169  RH  051%=      5-min Rain = 0
KCO2 150007Z 15014KT 28/17 A2984 RMK A01 T02790171  RH  052%=      5-min Rain = 0
KCO2 150008Z 14012KT 28/17 A2984 RMK A01 T02780172  RH  052%=      5-min Rain = 0
KCO2 150009Z 15013KT 28/17 A2984 RMK A01 T02780171  RH  052%=      5-min Rain = 0
KCO2 150010Z 15014KT 28/17 A2984 RMK A01 T02780169  RH  052%=      5-min Rain = 0
KCO2 150011Z 14013KT 28/17 A2984 RMK A01 T02770170  RH  052%=      5-min Rain = 0
KCO2 150012Z 15015KT 28/17 A2984 RMK A01 T02770168  RH  051%=      5-min Rain = 0
KCO2 150013Z 15013G18KT 28/17 A2984 RMK A01 T02760168  RH  052%=      5-min Rain = 0
KCO2 150014Z 14016KT 28/17 A2984 RMK A01 T02760166  RH  051%=      5-min Rain = 0
KCO2 150015Z 15015KT 28/17 A2984 RMK A01 T02760165  RH  051%=      5-min Rain = 0
KCO2 150016Z 14014KT 28/17 A2984 RMK A01 T02760166  RH  051%=      5-min Rain = 0
KCO2 150017Z 14012KT 28/17 A2984 RMK A01 T02760168  RH  052%=      5-min Rain = 0
KCO2 150018Z 14012KT 28/17 A2984 RMK A01 T02760167  RH  052%=      5-min Rain = 0
KCO2 150019Z 14011KT 28/17 A2984 RMK A01 T02760168  RH  052%=      5-min Rain = 0
KCO2 150020Z 14011KT 28/17 A2984 RMK A01 T02760169  RH  052%=      5-min Rain = 0
KCO2 150021Z 14014KT 28/17 A2984 RMK A01 T02760168  RH  052%=      5-min Rain = 0
KCO2 150022Z 14016KT 28/17 A2984 RMK A01 T02750166  RH  051%=      5-min Rain = 0
KCO2 150023Z 14017KT 28/17 A2984 RMK A01 T02750166  RH  051%=      5-min Rain = 0
KCO2 150024Z 14014KT 27/17 A2984 RMK A01 T02740166  RH  052%=      5-min Rain = 0
KCO2 150025Z 15014KT 27/17 A2984 RMK A01 T02740167  RH  052%=      5-min Rain = 0
KCO2 150026Z 15015KT 27/17 A2984 RMK A01 T02740169  RH  053%=      5-min Rain = 0
KCO2 150027Z 15016KT 27/17 A2984 RMK A01 T02740168  RH  053%=      5-min Rain = 0
KCO2 150028Z 16013G20KT 27/17 A2984 RMK A01 T02730169  RH  053%=      5-min Rain = 0
KCO2 150029Z 15016G22KT 27/17 A2984 RMK A01 T02730169  RH  053%=      5-min Rain = 0
KCO2 150030Z 15015KT 27/17 A2984 RMK A01 T02730170  RH  053%=      5-min Rain = 0
KCO2 150031Z 16014KT 27/17 A2984 RMK A01 T02720169  RH  053%=      5-min Rain = 0
KCO2 150032Z 16012KT 27/17 A2984 RMK A01 T02720169  RH  053%=      5-min Rain = 0
KCO2 150033Z 16012KT 27/17 A2984 RMK A01 T02720171  RH  054%=      5-min Rain = 0
KCO2 150034Z 16010KT 27/17 A2984 RMK A01 T02720171  RH  054%=      5-min Rain = 0
KCO2 150035Z 16014KT 27/17 A2984 RMK A01 T02720170  RH  053%=      5-min Rain = 0
KCO2 150036Z 16012KT 27/17 A2984 RMK A01 T02720168  RH  053%=      5-min Rain = 0
KCO2 150037Z 15011KT 27/17 A2984 RMK A01 T02720168  RH  053%=      5-min Rain = 0
KCO2 150038Z 15011KT 27/17 A2984 RMK A01 T02720168  RH  053%=      5-min Rain = 0
KCO2 150039Z 15013KT 27/17 A2984 RMK A01 T02710166  RH  053%=      5-min Rain = 0
KCO2 150040Z 15014KT 27/16 A2984 RMK A01 T02720164  RH  052%=      5-min Rain = 0
KCO2 150041Z 15012KT 27/16 A2984 RMK A01 T02710164  RH  052%=      5-min Rain = 0
KCO2 150042Z 15012KT 27/17 A2984 RMK A01 T02710166  RH  052%=      5-min Rain = 0
KCO2 150043Z 15015KT 27/16 A2984 RMK A01 T02710164  RH  052%=      5-min Rain = 0
KCO2 150044Z 15013KT 27/16 A2984 RMK A01 T02710163  RH  052%=      5-min Rain = 0
KCO2 150045Z 15013KT 27/17 A2984 RMK A01 T02710165  RH  052%=      5-min Rain = 0
KCO2 150046Z 15013KT 27/16 A2984 RMK A01 T02710164  RH  052%=      5-min Rain = 0
KCO2 150047Z 16012KT 27/16 A2984 RMK A01 T02710163  RH  052%=      5-min Rain = 0
KCO2 150048Z 15010KT 27/17 A2984 RMK A01 T02710165  RH  052%=      5-min Rain = 0
KCO2 150049Z 15011KT 27/17 A2984 RMK A01 T02700165  RH  052%=      5-min Rain = 0
KCO2 150050Z 15011KT 27/16 A2984 RMK A01 T02700164  RH  052%=      5-min Rain = 0
KCO2 150051Z 15011KT 27/16 A2984 RMK A01 T02700164  RH  052%=      5-min Rain = 0
KCO2 150052Z 15010KT 27/17 A2984 RMK A01 T02700165  RH  053%=      5-min Rain = 0
KCO2 150053Z 15010KT 27/17 A2984 RMK A01 T02700165  RH  053%=      5-min Rain = 0
KCO2 150054Z 15008KT 27/17 A2984 RMK A01 T02690165  RH  053%=      5-min Rain = 0
KCO2 150055Z 15009KT 27/17 A2984 RMK A01 T02690166  RH  053%=      5-min Rain = 0
KCO2 150056Z 15012KT 27/17 A2984 RMK A01 T02690165  RH  053%=      5-min Rain = 0
KCO2 150057Z 15009G14KT 27/16 A2984 RMK A01 T02690164  RH  053%=      5-min Rain = 0
KCO2 150058Z 15013KT 27/16 A2984 RMK A01 T02690164  RH  053%=      5-min Rain = 0
KCO2 150059Z 15010KT 27/17 A2984 RMK A01 T02690165  RH  053%=      5-min Rain = 0
KCO2 150100Z 15012KT 27/17 A2985 RMK A01 T02690165  RH  053%=      5-min Rain = 0
KCO2 150101Z 15010KT 27/17 A2985 RMK A01 T02690166  RH  053%=      5-min Rain = 0
KCO2 150102Z 15011KT 27/17 A2985 RMK A01 T02690166  RH  053%=      5-min Rain = 0
KCO2 150103Z 15012KT 27/17 A2985 RMK A01 T02690166  RH  053%=      5-min Rain = 0
KCO2 150104Z 16011KT 27/17 A2985 RMK A01 T02690166  RH  053%=      5-min Rain = 0
KCO2 150105Z 16012KT 27/17 A2985 RMK A01 T02680166  RH  053%=      5-min Rain = 0
KCO2 150106Z 15010KT 27/17 A2985 RMK A01 T02680166  RH  054%=      5-min Rain = 0
KCO2 150107Z 15008KT 27/17 A2985 RMK A01 T02680168  RH  054%=      5-min Rain = 0
KCO2 150108Z 15013KT 27/17 A2985 RMK A01 T02670168  RH  054%=      5-min Rain = 0
KCO2 150109Z 15012KT 27/17 A2985 RMK A01 T02660166  RH  054%=      5-min Rain = 0
KCO2 150110Z 15011KT 27/17 A2986 RMK A01 T02670167  RH  054%=      5-min Rain = 0
KCO2 150111Z 16010KT 27/17 A2986 RMK A01 T02660168  RH  055%=      5-min Rain = 0
KCO2 150112Z 16011G16KT 27/17 A2986 RMK A01 T02660169  RH  055%=      5-min Rain = 0
KCO2 150113Z 15010KT 27/17 A2986 RMK A01 T02650168  RH  055%=      5-min Rain = 0
KCO2 150114Z 15011KT 27/17 A2986 RMK A01 T02650169  RH  056%=      5-min Rain = 0
KCO2 150115Z 16011G16KT 27/17 A2986 RMK A01 T02650170  RH  056%=      5-min Rain = 0
KCO2 150116Z 15013KT 27/17 A2986 RMK A01 T02650170  RH  056%=      5-min Rain = 0
KCO2 150117Z 15012KT 27/17 A2986 RMK A01 T02650171  RH  056%=      5-min Rain = 0
KCO2 150118Z 16014KT 27/17 A2986 RMK A01 T02650171  RH  056%=      5-min Rain = 0
KCO2 150119Z 15011KT 27/17 A2986 RMK A01 T02650172  RH  056%=      5-min Rain = 0
KCO2 150120Z 15010KT 27/17 A2986 RMK A01 T02650172  RH  057%=      5-min Rain = 0
KCO2 150121Z 15013KT 26/17 A2986 RMK A01 T02640173  RH  057%=      5-min Rain = 0
KCO2 150122Z 16012KT 26/17 A2986 RMK A01 T02640173  RH  057%=      5-min Rain = 0
KCO2 150123Z 15011G16KT 26/17 A2986 RMK A01 T02640173  RH  058%=      5-min Rain = 0
KCO2 150124Z 15009KT 26/17 A2986 RMK A01 T02640174  RH  058%=      5-min Rain = 0
KCO2 150125Z 15010KT 26/18 A2986 RMK A01 T02630175  RH  058%=      5-min Rain = 0
KCO2 150126Z 16010KT 26/18 A2987 RMK A01 T02620175  RH  059%=      5-min Rain = 0
KCO2 150127Z 16010KT 26/18 A2987 RMK A01 T02610175  RH  059%=      5-min Rain = 0
KCO2 150128Z 16011KT 26/18 A2987 RMK A01 T02610175  RH  059%=      5-min Rain = 0
KCO2 150129Z 16011KT 26/18 A2987 RMK A01 T02610175  RH  059%=      5-min Rain = 0
KCO2 150130Z 16012KT 26/18 A2987 RMK A01 T02610175  RH  059%=      5-min Rain = 0
KCO2 150131Z 16011KT 26/18 A2987 RMK A01 T02610176  RH  059%=      5-min Rain = 0
KCO2 150132Z 16011KT 26/18 A2987 RMK A01 T02600176  RH  060%=      5-min Rain = 0
KCO2 150133Z 16013KT 26/18 A2987 RMK A01 T02610176  RH  060%=      5-min Rain = 0
KCO2 150134Z 17013KT 26/18 A2987 RMK A01 T02610176  RH  060%=      5-min Rain = 0
KCO2 150135Z 16015KT 26/18 A2988 RMK A01 T02610177  RH  060%=      5-min Rain = 0
KCO2 150136Z 16014KT 26/18 A2988 RMK A01 T02610177  RH  060%=      5-min Rain = 0
KCO2 150137Z 17014KT 26/18 A2988 RMK A01 T02610178  RH  060%=      5-min Rain = 0
KCO2 150138Z 18017G23KT 26/18 A2988 RMK A01 T02600180  RH  061%=      5-min Rain = 0
KCO2 150139Z 17017G22KT 26/18 A2988 RMK A01 T02580180  RH  062%=      5-min Rain = 0
KCO2 150140Z 17016KT 26/18 A2988 RMK A01 T02560181  RH  063%=      5-min Rain = 0
KCO2 150141Z 17014KT 26/18 A2989 RMK A01 T02550181  RH  064%=      5-min Rain = 0
KCO2 150142Z 17018KT 25/18 A2988 RMK A01 T02540182  RH  065%=      5-min Rain = 0
KCO2 150143Z 18013KT 25/18 A2989 RMK A01 T02530183  RH  065%=      5-min Rain = 0
KCO2 150144Z 17012KT 25/18 A2989 RMK A01 T02520184  RH  066%=      5-min Rain = 0
KCO2 150145Z 17013KT 25/19 A2989 RMK A01 T02510185  RH  067%=      5-min Rain = 0
KCO2 150151Z 17012KT 25/19 A2989 RMK A01 T02480185  RH  068%=      5-min Rain = 0
KCO2 150152Z 16014KT 25/19 A2989 RMK A01 T02480185  RH  068%=      5-min Rain = 0
KCO2 150153Z 16016KT 25/18 A2989 RMK A01 T02470184  RH  068%=      5-min Rain = 0
KCO2 150154Z 16015KT 25/18 A2989 RMK A01 T02470184  RH  068%=      5-min Rain = 0
KCO2 150155Z 16014G20KT 25/18 A2989 RMK A01 T02470184  RH  068%=      5-min Rain = 0
KCO2 150156Z 17014KT 25/18 A2989 RMK A01 T02470183  RH  068%=      5-min Rain = 0
KCO2 150157Z 16011KT 25/18 A2989 RMK A01 T02470183  RH  068%=      5-min Rain = 0
KCO2 150158Z 17013KT 25/18 A2989 RMK A01 T02460182  RH  068%=      5-min Rain = 0
KCO2 150159Z 17011KT 25/18 A2989 RMK A01 T02460182  RH  068%=      5-min Rain = 0
KCO2 150200Z 17013KT 25/18 A2989 RMK A01 T02450181  RH  068%=      5-min Rain = 0
KCO2 150201Z 17013KT 25/18 A2989 RMK A01 T02450176  RH  065%=      5-min Rain = 0
KCO2 150202Z 16010KT 25/18 A2989 RMK A01 T02450177  RH  065%=      5-min Rain = 0
KCO2 150203Z 17011G16KT 25/18 A2989 RMK A01 T02450178  RH  066%=      5-min Rain = 0
KCO2 150204Z 17013KT 25/17 A2989 RMK A01 T02450172  RH  064%=      5-min Rain = 0
KCO2 150205Z 17012KT 24/17 A2989 RMK A01 T02440167  RH  062%=      5-min Rain = 0
KCO2 150206Z 17015KT 24/16 A299 RMK A01 T02440163  RH  060%=      5-min Rain = 0
KCO2 150207Z 17013KT 24/16 A299 RMK A01 T02440161  RH  060%=      5-min Rain = 0
KCO2 150208Z 17013KT 24/16 A299 RMK A01 T02440159  RH  059%=      5-min Rain = 0
KCO2 150209Z 16012G17KT 24/16 A299 RMK A01 T02440157  RH  059%=      5-min Rain = 0
KCO2 150210Z 17013KT 24/15 A299 RMK A01 T02430153  RH  057%=      5-min Rain = 0
KCO2 150211Z 16013KT 24/15 A299 RMK A01 T02430151  RH  057%=      5-min Rain = 0
KCO2 150212Z 17013KT 24/15 A299 RMK A01 T02430151  RH  057%=      5-min Rain = 0
KCO2 150213Z 16012KT 24/15 A299 RMK A01 T02430150  RH  056%=      5-min Rain = 0
KCO2 150214Z 16011KT 24/15 A299 RMK A01 T02420150  RH  056%=      5-min Rain = 0
KCO2 150215Z 16011KT 24/15 A299 RMK A01 T02420150  RH  056%=      5-min Rain = 0
KCO2 150216Z 16011KT 24/15 A299 RMK A01 T02410149  RH  056%=      5-min Rain = 0
KCO2 150217Z 16009KT 24/15 A299 RMK A01 T02410149  RH  056%=      5-min Rain = 0
KCO2 150218Z 16008KT 24/15 A299 RMK A01 T02400150  RH  057%=      5-min Rain = 0
KCO2 150219Z 16011KT 24/15 A2991 RMK A01 T02390150  RH  057%=      5-min Rain = 0
KCO2 150220Z 16009KT 24/15 A2991 RMK A01 T02390150  RH  057%=      5-min Rain = 0
KCO2 150221Z 16009KT 24/15 A2991 RMK A01 T02380150  RH  058%=      5-min Rain = 0
KCO2 150222Z 16010KT 24/15 A2991 RMK A01 T02380150  RH  058%=      5-min Rain = 0
KCO2 150223Z 17009KT 24/15 A2991 RMK A01 T02380149  RH  057%=      5-min Rain = 0
KCO2 150224Z 17011KT 24/15 A2991 RMK A01 T02370149  RH  058%=      5-min Rain = 0
KCO2 150225Z 18012KT 24/15 A2991 RMK A01 T02380148  RH  057%=      5-min Rain = 0
KCO2 150226Z 17010KT 24/15 A2991 RMK A01 T02380147  RH  057%=      5-min Rain = 0
KCO2 150227Z 17012KT 24/15 A2991 RMK A01 T02380147  RH  057%=      5-min Rain = 0
KCO2 150228Z 18012KT 24/15 A2991 RMK A01 T02370146  RH  056%=      5-min Rain = 0
KCO2 150229Z 18011KT 24/15 A2991 RMK A01 T02370145  RH  056%=      5-min Rain = 0
KCO2 150230Z 18010KT 24/15 A2991 RMK A01 T02370146  RH  057%=      5-min Rain = 0
KCO2 150231Z 18012G17KT 24/15 A2991 RMK A01 T02360146  RH  057%=      5-min Rain = 0
KCO2 150232Z 18014KT 24/15 A2991 RMK A01 T02350146  RH  057%=      5-min Rain = 0
KCO2 150233Z 17015KT 23/15 A2991 RMK A01 T02340146  RH  058%=      5-min Rain = 0
KCO2 150234Z 18013KT 23/15 A2991 RMK A01 T02330146  RH  058%=      5-min Rain = 0
KCO2 150235Z 17009G14KT 23/15 A2991 RMK A01 T02320146  RH  059%=      5-min Rain = 0
KCO2 150236Z 18011KT 23/15 A2991 RMK A01 T02310147  RH  059%=      5-min Rain = 0
KCO2 150237Z 17012KT 23/15 A2991 RMK A01 T02300147  RH  060%=      5-min Rain = 0
KCO2 150238Z 18012KT 23/15 A2991 RMK A01 T02290148  RH  060%=      5-min Rain = 0
KCO2 150239Z 18011KT 23/15 A2991 RMK A01 T02290148  RH  060%=      5-min Rain = 0
KCO2 150240Z 18011KT 23/15 A2991 RMK A01 T02280148  RH  061%=      5-min Rain = 0
KCO2 150241Z 18011KT 23/15 A2991 RMK A01 T02270148  RH  061%=      5-min Rain = 0
KCO2 150242Z 17009KT 23/15 A2991 RMK A01 T02260149  RH  062%=      5-min Rain = 0
KCO2 150243Z 17009KT 23/15 A2991 RMK A01 T02250149  RH  062%=      5-min Rain = 0
KCO2 150244Z 17009KT 23/15 A2991 RMK A01 T02250149  RH  062%=      5-min Rain = 0
KCO2 150245Z 17009KT 22/15 A2991 RMK A01 T02240150  RH  063%=      5-min Rain = 0
KCO2 150246Z 17009KT 22/15 A2991 RMK A01 T02230150  RH  063%=      5-min Rain = 0
KCO2 150247Z 17008KT 22/15 A2991 RMK A01 T02220150  RH  064%=      5-min Rain = 0
KCO2 150248Z 16008KT 22/15 A2991 RMK A01 T02220150  RH  064%=      5-min Rain = 0
KCO2 150249Z 16009KT 22/15 A2991 RMK A01 T02220151  RH  064%=      5-min Rain = 0
KCO2 150250Z 16008KT 22/15 A2991 RMK A01 T02210150  RH  064%=      5-min Rain = 0
KCO2 150251Z 17008KT 22/15 A2991 RMK A01 T02210151  RH  064%=      5-min Rain = 0
KCO2 150252Z 17009KT 22/15 A2991 RMK A01 T02210151  RH  064%=      5-min Rain = 0
KCO2 150253Z 17007KT 22/15 A2991 RMK A01 T02210151  RH  065%=      5-min Rain = 0
KCO2 150254Z 17006KT 22/15 A2991 RMK A01 T02200151  RH  065%=      5-min Rain = 0
KCO2 150255Z 17007KT 22/15 A2991 RMK A01 T02200152  RH  065%=      5-min Rain = 0
KCO2 150256Z 16007KT 22/15 A2991 RMK A01 T02190151  RH  065%=      5-min Rain = 0
KCO2 150257Z 17007KT 22/15 A2991 RMK A01 T02190152  RH  066%=      5-min Rain = 0
KCO2 150258Z 16007KT 22/15 A2991 RMK A01 T02180151  RH  066%=      5-min Rain = 0
KCO2 150259Z 16007KT 22/15 A2991 RMK A01 T02180152  RH  066%=      5-min Rain = 0
KCO2 150300Z 16007KT 22/15 A2991 RMK A01 T02180152  RH  066%=      5-min Rain = 0
KCO2 150301Z 15006KT 22/15 A2991 RMK A01 T02180152  RH  066%=      5-min Rain = 0
KCO2 150302Z 15007KT 22/15 A2991 RMK A01 T02170152  RH  067%=      5-min Rain = 0
KCO2 150303Z 14007KT 22/15 A2991 RMK A01 T02160152  RH  067%=      5-min Rain = 0
KCO2 150304Z 14007KT 22/15 A2991 RMK A01 T02160152  RH  067%=      5-min Rain = 0
KCO2 150305Z 14007KT 22/15 A2991 RMK A01 T02150152  RH  067%=      5-min Rain = 0
KCO2 150306Z 14007KT 22/15 A2991 RMK A01 T02150152  RH  068%=      5-min Rain = 0
KCO2 150307Z 14006KT 21/15 A2992 RMK A01 T02140152  RH  068%=      5-min Rain = 0
KCO2 150308Z 14005KT 21/15 A2992 RMK A01 T02130152  RH  068%=      5-min Rain = 0
KCO2 150309Z 14005KT 21/15 A2992 RMK A01 T02130153  RH  068%=      5-min Rain = 0
KCO2 150310Z 14005KT 21/15 A2992 RMK A01 T02120153  RH  069%=      5-min Rain = 0
KCO2 150311Z 14005KT 21/15 A2992 RMK A01 T02110153  RH  069%=      5-min Rain = 0
KCO2 150312Z 14005KT 21/15 A2992 RMK A01 T02100154  RH  070%=      5-min Rain = 0
KCO2 150313Z 14005KT 21/15 A2992 RMK A01 T02090154  RH  071%=      5-min Rain = 0
KCO2 150314Z 14006KT 21/15 A2992 RMK A01 T02080154  RH  071%=      5-min Rain = 0
KCO2 150315Z 15006KT 21/15 A2992 RMK A01 T02070154  RH  072%=      5-min Rain = 0
KCO2 150316Z 14005KT 21/15 A2992 RMK A01 T02070154  RH  072%=      5-min Rain = 0
KCO2 150317Z 14007KT 21/15 A2992 RMK A01 T02060154  RH  072%=      5-min Rain = 0
KCO2 150318Z 14007KT 21/15 A2992 RMK A01 T02060154  RH  072%=      5-min Rain = 0
KCO2 150319Z 14007KT 21/16 A2992 RMK A01 T02060155  RH  072%=      5-min Rain = 0
KCO2 150320Z 14007KT 21/16 A2992 RMK A01 T02060155  RH  072%=      5-min Rain = 0
KCO2 150321Z 14008KT 21/16 A2992 RMK A01 T02060155  RH  072%=      5-min Rain = 0
KCO2 150322Z 14008KT 21/16 A2991 RMK A01 T02060156  RH  073%=      5-min Rain = 0
KCO2 150323Z 14008KT 21/16 A2991 RMK A01 T02060156  RH  073%=      5-min Rain = 0
KCO2 150324Z 14008KT 21/16 A2991 RMK A01 T02060156  RH  073%=      5-min Rain = 0
KCO2 150325Z 14009KT 21/16 A2991 RMK A01 T02060155  RH  073%=      5-min Rain = 0
KCO2 150326Z 14008KT 21/16 A2992 RMK A01 T02060155  RH  072%=      5-min Rain = 0
KCO2 150327Z 14010KT 21/16 A2992 RMK A01 T02060155  RH  073%=      5-min Rain = 0
KCO2 150328Z 15009KT 21/16 A2992 RMK A01 T02050155  RH  073%=      5-min Rain = 0
KCO2 150329Z 15009KT 21/16 A2992 RMK A01 T02060155  RH  073%=      5-min Rain = 0
KCO2 150330Z 15009KT 21/15 A2992 RMK A01 T02050154  RH  072%=      5-min Rain = 0
KCO2 150331Z 15008KT 21/15 A2992 RMK A01 T02060154  RH  072%=      5-min Rain = 0
KCO2 150332Z 15008KT 21/16 A2992 RMK A01 T02050155  RH  073%=      5-min Rain = 0
KCO2 150333Z 16008KT 21/16 A2992 RMK A01 T02060156  RH  073%=      5-min Rain = 0
KCO2 150334Z 16008KT 21/16 A2992 RMK A01 T02050156  RH  073%=      5-min Rain = 0
KCO2 150335Z 16009KT 20/16 A2992 RMK A01 T02040155  RH  073%=      5-min Rain = 0
KCO2 150336Z 16008KT 20/16 A2992 RMK A01 T02040155  RH  073%=      5-min Rain = 0
KCO2 150337Z 15008KT 20/16 A2992 RMK A01 T02040155  RH  074%=      5-min Rain = 0
KCO2 150338Z 15008KT 20/16 A2993 RMK A01 T02030155  RH  074%=      5-min Rain = 0
KCO2 150339Z 15008KT 20/16 A2993 RMK A01 T02030156  RH  074%=      5-min Rain = 0
KCO2 150340Z 15008KT 20/16 A2993 RMK A01 T02020156  RH  074%=      5-min Rain = 0
KCO2 150341Z 15008KT 20/16 A2993 RMK A01 T02020155  RH  074%=      5-min Rain = 0
KCO2 150342Z 15008KT 20/16 A2993 RMK A01 T02020155  RH  074%=      5-min Rain = 0
KCO2 150343Z 15009KT 20/16 A2993 RMK A01 T02020155  RH  074%=      5-min Rain = 0
KCO2 150344Z 15009KT 20/15 A2993 RMK A01 T02020154  RH  074%=      5-min Rain = 0
KCO2 150345Z 15009KT 20/15 A2994 RMK A01 T02020154  RH  074%=      5-min Rain = 0
KCO2 150346Z 15009KT 20/15 A2994 RMK A01 T02030154  RH  074%=      5-min Rain = 0
KCO2 150347Z 14009KT 20/15 A2994 RMK A01 T02030154  RH  074%=      5-min Rain = 0
KCO2 150348Z 15009KT 20/15 A2994 RMK A01 T02030154  RH  074%=      5-min Rain = 0
KCO2 150349Z 15010KT 20/15 A2994 RMK A01 T02030154  RH  073%=      5-min Rain = 0
KCO2 150350Z 15010KT 20/15 A2994 RMK A01 T02030154  RH  073%=      5-min Rain = 0
KCO2 150351Z 15010KT 20/15 A2994 RMK A01 T02030152  RH  073%=      5-min Rain = 0
KCO2 150352Z 15009KT 20/15 A2994 RMK A01 T02030151  RH  072%=      5-min Rain = 0
KCO2 150353Z 15011KT 20/15 A2994 RMK A01 T02040151  RH  071%=      5-min Rain = 0
KCO2 150354Z 16010KT 20/15 A2994 RMK A01 T02040149  RH  071%=      5-min Rain = 0
KCO2 150355Z 15010KT 21/15 A2994 RMK A01 T02050150  RH  071%=      5-min Rain = 0
KCO2 150356Z 15011KT 21/15 A2994 RMK A01 T02050150  RH  070%=      5-min Rain = 0
KCO2 150357Z 15012KT 21/15 A2994 RMK A01 T02050149  RH  070%=      5-min Rain = 0
KCO2 150358Z 15013KT 21/15 A2994 RMK A01 T02050149  RH  070%=      5-min Rain = 0
KCO2 150359Z 15011KT 21/15 A2994 RMK A01 T02050149  RH  070%=      5-min Rain = 0
KCO2 150400Z 15010KT 21/15 A2995 RMK A01 T02050149  RH  070%=      5-min Rain = 0
KCO2 150401Z 15012KT 21/15 A2995 RMK A01 T02050149  RH  070%=      5-min Rain = 0
KCO2 150402Z 15009KT 20/15 A2995 RMK A01 T02040149  RH  071%=      5-min Rain = 0
KCO2 150403Z 15010KT 20/15 A2995 RMK A01 T02040149  RH  071%=      5-min Rain = 0
KCO2 150404Z 15010KT 20/15 A2995 RMK A01 T02030149  RH  071%=      5-min Rain = 0
KCO2 150405Z 15012G17KT 20/15 A2995 RMK A01 T02030150  RH  071%=      5-min Rain = 0
KCO2 150406Z 15011G16KT 20/15 A2995 RMK A01 T02030150  RH  072%=      5-min Rain = 0
KCO2 150407Z 15012KT 20/15 A2995 RMK A01 T02020150  RH  072%=      5-min Rain = 0
KCO2 150408Z 16012KT 20/15 A2995 RMK A01 T02020151  RH  072%=      5-min Rain = 0
KCO2 150409Z 15012KT 20/15 A2996 RMK A01 T02020151  RH  072%=      5-min Rain = 0
KCO2 150410Z 15013KT 20/15 A2996 RMK A01 T02020151  RH  073%=      5-min Rain = 0
KCO2 150411Z 15011KT 20/15 A2995 RMK A01 T02010152  RH  073%=      5-min Rain = 0
KCO2 150412Z 15012KT 20/15 A2995 RMK A01 T02010152  RH  073%=      5-min Rain = 0
KCO2 150413Z 16012KT 20/15 A2995 RMK A01 T02010152  RH  073%=      5-min Rain = 0
KCO2 150414Z 16012KT 20/15 A2995 RMK A01 T02020153  RH  073%=      5-min Rain = 0
KCO2 150415Z 16014KT 20/15 A2995 RMK A01 T02010153  RH  074%=      5-min Rain = 0
KCO2 150416Z 16013KT 20/15 A2995 RMK A01 T02010153  RH  074%=      5-min Rain = 0
KCO2 150417Z 15012KT 20/15 A2995 RMK A01 T02010153  RH  074%=      5-min Rain = 0
KCO2 150418Z 15011KT 20/15 A2995 RMK A01 T02010154  RH  074%=      5-min Rain = 0
KCO2 150419Z 15011KT 20/15 A2995 RMK A01 T02000153  RH  075%=      5-min Rain = 0
KCO2 150420Z 15013KT 20/15 A2995 RMK A01 T02000154  RH  075%=      5-min Rain = 0
KCO2 150421Z 16013KT 20/15 A2995 RMK A01 T01990154  RH  075%=      5-min Rain = 0
KCO2 150422Z 15011KT 20/15 A2995 RMK A01 T01990154  RH  075%=      5-min Rain = 0
KCO2 150423Z 16010KT 20/15 A2995 RMK A01 T01990154  RH  075%=      5-min Rain = 0
KCO2 150424Z 15011KT 20/15 A2995 RMK A01 T01990154  RH  075%=      5-min Rain = 0
KCO2 150425Z 16010KT 20/15 A2995 RMK A01 T01980154  RH  076%=      5-min Rain = 0
KCO2 150426Z 16011KT 20/15 A2995 RMK A01 T01980154  RH  076%=      5-min Rain = 0
KCO2 150427Z 16011KT 20/16 A2995 RMK A01 T01980155  RH  076%=      5-min Rain = 0
KCO2 150428Z 16011KT 20/16 A2995 RMK A01 T01980155  RH  076%=      5-min Rain = 0
KCO2 150429Z 16012KT 20/16 A2995 RMK A01 T01980156  RH  077%=      5-min Rain = 0
KCO2 150430Z 16013KT 20/16 A2995 RMK A01 T01980156  RH  077%=      5-min Rain = 0
KCO2 150431Z 17010KT 20/16 A2996 RMK A01 T01980156  RH  077%=      5-min Rain = 0
KCO2 150432Z 16009KT 20/16 A2996 RMK A01 T01980157  RH  077%=      5-min Rain = 0
KCO2 150433Z 16009KT 20/16 A2996 RMK A01 T01980158  RH  078%=      5-min Rain = 0
KCO2 150434Z 15009KT 20/16 A2996 RMK A01 T01970158  RH  078%=      5-min Rain = 0
KCO2 150435Z 16012KT 20/16 A2996 RMK A01 T01970159  RH  078%=      5-min Rain = 0
KCO2 150436Z 16014KT 20/16 A2996 RMK A01 T01970159  RH  079%=      5-min Rain = 0
KCO2 150437Z 16013KT 20/16 A2996 RMK A01 T01970159  RH  079%=      5-min Rain = 0
KCO2 150438Z 16012KT 20/16 A2996 RMK A01 T01980160  RH  079%=      5-min Rain = 0
KCO2 150439Z 17010KT 20/16 A2996 RMK A01 T01970160  RH  079%=      5-min Rain = 0
KCO2 150440Z 16013KT 20/16 A2996 RMK A01 T01980160  RH  079%=      5-min Rain = 0
KCO2 150441Z 17011KT 20/16 A2995 RMK A01 T01980160  RH  079%=      5-min Rain = 0
KCO2 150442Z 18011KT 20/16 A2995 RMK A01 T01980161  RH  079%=      5-min Rain = 0
KCO2 150443Z 18010KT 20/16 A2995 RMK A01 T01980161  RH  079%=      5-min Rain = 0
KCO2 150444Z 17010KT 20/16 A2995 RMK A01 T01980160  RH  079%=      5-min Rain = 0
KCO2 150445Z 17009KT 20/16 A2995 RMK A01 T01970161  RH  079%=      5-min Rain = 0
KCO2 150446Z 17009KT 20/16 A2995 RMK A01 T01970161  RH  079%=      5-min Rain = 0
KCO2 150447Z 17007KT 20/16 A2995 RMK A01 T01970160  RH  080%=      5-min Rain = 0
KCO2 150448Z 17008KT 20/16 A2995 RMK A01 T01970161  RH  080%=      5-min Rain = 0
KCO2 150449Z 18008KT 20/16 A2995 RMK A01 T01960160  RH  080%=      5-min Rain = 0
KCO2 150450Z 17008KT 20/16 A2995 RMK A01 T01960160  RH  079%=      5-min Rain = 0
KCO2 150451Z 17008KT 20/16 A2995 RMK A01 T01970160  RH  079%=      5-min Rain = 0
KCO2 150452Z 17009KT 20/16 A2995 RMK A01 T01960160  RH  079%=      5-min Rain = 0
KCO2 150453Z 17009KT 20/16 A2995 RMK A01 T01960159  RH  079%=      5-min Rain = 0
KCO2 150454Z 17009KT 20/16 A2995 RMK A01 T01970159  RH  079%=      5-min Rain = 0
KCO2 150455Z 17008KT 20/16 A2995 RMK A01 T01980159  RH  078%=      5-min Rain = 0
KCO2 150456Z 17008KT 20/16 A2995 RMK A01 T01980159  RH  078%=      5-min Rain = 0
KCO2 150457Z 17009KT 20/16 A2995 RMK A01 T01980158  RH  078%=      5-min Rain = 0
KCO2 150458Z 17011KT 20/16 A2995 RMK A01 T01980157  RH  077%=      5-min Rain = 0
KCO2 150459Z 18008KT 20/16 A2995 RMK A01 T01990157  RH  077%=      5-min Rain = 0

Page generated in 0.1101 seconds.